BA2622 / G-EUUZ 7700 Squawk Report (13th of September, 2019)

Aircraft A320 Reg No. G-EUUZ Age 11 years old
Model A320 Jet engines 2 First flight 30-09-08
Registered 21-10-08 Rollout 20-09-08 Delivered 21-10-08
Construction No. 3649 Line No. N/A Series 232
ADSHEX 405A48 Airline name British Airways Owner N/A
Airfield based Heathrow~Gtr London~G First tracked 2017-07-13 14:22:00

Flight history for G-EUUZ

Route Flight No Date Playback
Gatwick (LGW) - Dubrovnik (DBV) BA2680 2019-10-22 14:36:00
Gibraltar (GIB) - Gatwick (LGW) BA2663 2019-10-22 12:06:00
Gatwick (LGW) - Gibraltar (GIB) BA2662 2019-10-22 09:27:00
Catania Fontanarossa (CTA) - Gatwick (LGW) BA2595 2019-10-21 22:11:00
Gatwick (LGW) - Catania Fontanarossa (CTA) BA2594 2019-10-21 18:15:00
Faro (FAO) - Gatwick (LGW) BA2683 2019-10-21 13:46:00
Gatwick (LGW) - Faro (FAO) BA2682 2019-10-21 10:00:00
Bilbao (BIO) - Gatwick (LGW) BA2687 2019-10-20 23:41:00
Gatwick (LGW) - Bilbao (BIO) BA2686 2019-10-20 22:20:00
Turin-Caselle (TRN) - Gatwick (LGW) BA2579 2019-10-20 18:05:00
Gatwick (LGW) - Turin-Caselle (TRN) BA2578 2019-10-20 16:39:00
Bari (BRI) - Gatwick (LGW) BA2591 2019-10-20 13:41:00
Gatwick (LGW) - Bari (BRI) BA2590 2019-10-20 10:23:00
Malaga (AGP) - Gatwick (LGW) BA2721 2019-10-20 06:18:00
Gatwick (LGW) - Malaga (AGP) BA2720 2019-10-19 23:39:00
Ibiza (IBZ) - Gatwick (LGW) BA2725 2019-10-19 19:17:00
Gatwick (LGW) - Ibiza (IBZ) BA2724 2019-10-19 17:21:00
Capodichino (NAP) - Gatwick (LGW) BA2607 2019-10-19 13:53:00
Gatwick (LGW) - Capodichino (NAP) BA2606 2019-10-19 08:46:00
Luqa (MLA) - Gatwick (LGW) BA2645 2019-10-18 23:21:00
Time Lat Lon Altitude Heading Speed Vertical Rate
2019-09-13 08:26:16 GMT 43.664276 7.213326 0 337 0 0
2019-09-13 08:26:08 GMT 43.664154 7.213387 0 340 2 0
2019-09-13 08:25:58 GMT 43.663902 7.213522 0 337 3 0
2019-09-13 08:25:47 GMT 43.663708 7.213636 0 334 3 0
2019-09-13 08:25:27 GMT 43.663559 7.214409 0 250 13 0
2019-09-13 08:25:24 GMT 43.663616 7.214600 0 241 13 0
2019-09-13 08:25:00 GMT 43.663170 7.216170 0 315 14 0
2019-09-13 08:24:54 GMT 43.662914 7.216530 0 315 13 0
2019-09-13 08:24:42 GMT 43.662472 7.217151 0 326 17 0
2019-09-13 08:24:31 GMT 43.661762 7.217511 0 19 17 0
2019-09-13 08:24:22 GMT 43.661018 7.216708 0 45 32 0
2019-09-13 08:24:11 GMT 43.659134 7.214094 0 45 92 0
2019-09-13 08:24:01 GMT 43.655197 7.208699 0 45 135 0
2019-09-13 08:23:51 GMT 43.650421 7.202113 -300 44 132 -832
2019-09-13 08:23:37 GMT 43.644958 7.194606 -150 44 132 -640
2019-09-13 08:23:28 GMT 43.641174 7.189402 -50 45 135 -704
2019-09-13 08:23:19 GMT 43.636856 7.183489 50 44 135 -704
2019-09-13 08:23:07 GMT 43.631836 7.176563 175 45 134 -768
2019-09-13 08:22:57 GMT 43.627396 7.170495 300 45 134 -704
2019-09-13 08:22:47 GMT 43.622936 7.164328 425 45 134 -704
2019-09-13 08:22:37 GMT 43.617920 7.157465 550 45 134 -640
2019-09-13 08:22:26 GMT 43.613480 7.151397 650 44 135 -640
2019-09-13 08:22:14 GMT 43.608490 7.144562 775 45 138 -768
2019-09-13 08:22:04 GMT 43.603729 7.137983 1,025 45 149 -640
2019-09-13 08:21:53 GMT 43.598312 7.130585 1,325 45 149 -640
2019-09-13 08:21:44 GMT 43.593567 7.123995 1,325 44 159 -832
2019-09-13 08:21:32 GMT 43.587479 7.115691 1,350 45 159 -896
2019-09-13 08:21:22 GMT 43.582260 7.108538 1,475 45 158 -832
2019-09-13 08:21:12 GMT 43.576630 7.100809 1,625 44 160 -896
2019-09-13 08:21:00 GMT 43.571136 7.093272 1,750 45 161 -896
2019-09-13 08:20:50 GMT 43.565727 7.085855 1,925 45 162 -1024
2019-09-13 08:20:40 GMT 43.560184 7.078269 2,100 44 161 -1024
2019-09-13 08:20:29 GMT 43.554691 7.070748 2,250 44 160 -768
2019-09-13 08:20:19 GMT 43.549072 7.063123 2,375 44 161 -704
2019-09-13 08:20:09 GMT 43.543568 7.055577 2,500 44 166 -768
2019-09-13 08:19:58 GMT 43.537655 7.047533 2,625 45 168 -896
2019-09-13 08:19:47 GMT 43.531651 7.039359 2,800 44 170 -1152
2019-09-13 08:19:36 GMT 43.525181 7.030465 3,025 44 169 -1280
2019-09-13 08:19:26 GMT 43.519917 7.023206 3,225 45 168 -1152
2019-09-13 08:19:14 GMT 43.512909 7.013557 3,425 45 169 -832
2019-09-13 08:19:04 GMT 43.508045 7.006792 3,525 45 171 -448
2019-09-13 08:18:53 GMT 43.501530 6.997572 3,600 45 178 -448
2019-09-13 08:18:43 GMT 43.496178 6.989920 3,675 46 182 -256
2019-09-13 08:18:33 GMT 43.490158 6.981301 3,650 49 187 448
2019-09-13 08:18:22 GMT 43.484398 6.970171 3,600 63 201 64
2019-09-13 08:18:12 GMT 43.481140 6.957028 3,575 82 214 0
2019-09-13 08:18:02 GMT 43.480629 6.943621 3,600 90 222 0
2019-09-13 08:17:51 GMT 43.481049 6.927391 3,600 95 222 -64
2019-09-13 08:17:40 GMT 43.481873 6.911933 3,625 95 227 -512
2019-09-13 08:17:31 GMT 43.482864 6.897714 3,725 95 233 -576
2019-09-13 08:17:20 GMT 43.484024 6.882360 3,825 95 241 -448
2019-09-13 08:17:08 GMT 43.485214 6.864283 3,900 94 251 -448
2019-09-13 08:16:59 GMT 43.486176 6.847995 3,975 94 265 -512
2019-09-13 08:16:47 GMT 43.487366 6.827875 4,075 94 293 -1344
2019-09-13 08:16:38 GMT 43.488308 6.811000 4,225 94 289 -1216
2019-09-13 08:16:26 GMT 43.489193 6.790859 4,450 94 296 -1280
2019-09-13 08:16:16 GMT 43.490356 6.771175 4,700 93 300 -1536
2019-09-13 08:16:05 GMT 43.491287 6.749856 4,950 94 304 -1344
2019-09-13 08:15:54 GMT 43.492546 6.728668 5,225 94 308 -1920
2019-09-13 08:15:44 GMT 43.493477 6.709769 5,475 94 313 -1536
2019-09-13 08:15:34 GMT 43.494873 6.688385 5,750 95 316 -1664
2019-09-13 08:15:24 GMT 43.496841 6.667040 6,025 98 321 -1728
2019-09-13 08:15:17 GMT 43.498039 6.655884 6,200 98 322 -1728
2019-09-13 08:15:13 GMT 43.498970 6.646336 6,325 99 324 -1920
2019-09-13 08:15:01 GMT 43.501949 6.622663 6,700 99 325 -2304
2019-09-13 08:14:52 GMT 43.504135 6.603045 7,050 99 326 -2112
2019-09-13 08:14:45 GMT 43.505905 6.589561 7,275 99 326 -2048
2019-09-13 08:14:40 GMT 43.507114 6.579306 7,450 99 327 -2112
2019-09-13 08:14:31 GMT 43.509384 6.559988 7,775 99 327 -2176
2019-09-13 08:14:20 GMT 43.511909 6.538108 8,125 99 329 -2240
2019-09-13 08:14:09 GMT 43.514282 6.516234 8,525 98 327 -2880
2019-09-13 08:13:59 GMT 43.516891 6.494620 9,000 98 324 -2112
2019-09-13 08:13:47 GMT 43.519409 6.471331 9,375 98 324 -1920
2019-09-13 08:13:38 GMT 43.522060 6.450609 9,700 101 325 -2048
2019-09-13 08:13:27 GMT 43.525272 6.429618 10,050 104 325 -2112
2019-09-13 08:13:20 GMT 43.528065 6.416670 10,250 106 326 -1856
2019-09-13 08:13:17 GMT 43.529785 6.408888 10,375 106 327 -1728
2019-09-13 08:13:05 GMT 43.534302 6.387177 10,675 106 329 -1920
2019-09-13 08:12:59 GMT 43.536896 6.373859 10,875 106 330 -2112
2019-09-13 08:12:55 GMT 43.539051 6.364615 11,025 106 330 -2112
2019-09-13 08:12:49 GMT 43.541054 6.354087 11,200 106 331 -1920
2019-09-13 08:12:43 GMT 43.543613 6.341923 11,375 106 332 -1856
2019-09-13 08:12:37 GMT 43.546547 6.328910 11,550 106 333 -1600
2019-09-13 08:12:34 GMT 43.547653 6.323462 11,625 106 334 -1600
2019-09-13 08:12:24 GMT 43.552139 6.301426 11,900 106 337 -1856
2019-09-13 08:12:17 GMT 43.555019 6.287776 12,100 106 338 -1984
2019-09-13 08:12:11 GMT 43.557487 6.276986 12,275 106 339 -2048
2019-09-13 08:12:06 GMT 43.560013 6.264954 12,475 106 339 -2176
2019-09-13 08:12:02 GMT 43.561676 6.257106 12,600 106 339 -2176
2019-09-13 08:11:56 GMT 43.564407 6.244195 12,825 106 339 -2304
2019-09-13 08:11:49 GMT 43.567337 6.230078 13,075 106 339 -2432
2019-09-13 08:11:44 GMT 43.569443 6.219348 13,275 106 337 -2624
2019-09-13 08:11:41 GMT 43.570751 6.213226 13,400 106 336 -2560
2019-09-13 08:11:33 GMT 43.574291 6.197662 13,700 106 334 -1984
2019-09-13 08:11:28 GMT 43.576675 6.185622 13,875 106 333 -1664
2019-09-13 08:11:23 GMT 43.578712 6.176474 13,950 106 333 -448
2019-09-13 08:11:19 GMT 43.580437 6.168954 14,000 106 335 0
2019-09-13 08:11:12 GMT 43.583725 6.154004 14,000 107 334 0
2019-09-13 08:11:03 GMT 43.587524 6.136950 14,000 113 337 0
2019-09-13 08:11:00 GMT 43.588989 6.131138 14,000 110 337 64
2019-09-13 08:10:50 GMT 43.595940 6.110491 14,000 121 338 64
2019-09-13 08:10:38 GMT 43.607803 6.090003 13,975 136 342 0
2019-09-13 08:10:28 GMT 43.619843 6.075823 14,000 142 350 -448
2019-09-13 08:10:17 GMT 43.633179 6.061837 14,200 142 355 -1600
2019-09-13 08:10:07 GMT 43.647053 6.046993 14,325 142 355 -1856
2019-09-13 08:09:50 GMT 43.668915 6.023829 14,750 142 360 -1536
2019-09-13 08:09:45 GMT 43.676056 6.016420 14,900 142 365 -1984
2019-09-13 08:09:34 GMT 43.690338 6.001026 15,300 142 364 -3008
2019-09-13 08:09:22 GMT 43.707104 5.983494 15,800 142 361 -2880
2019-09-13 08:09:19 GMT 43.710831 5.979374 16,025 142 360 -2240
2019-09-13 08:09:13 GMT 43.718231 5.971527 16,250 142 361 -2176
2019-09-13 08:09:10 GMT 43.724350 5.965001 16,400 142 364 -1664
2019-09-13 08:09:02 GMT 43.732910 5.956123 16,650 142 366 -1920
2019-09-13 08:08:52 GMT 43.746628 5.941380 16,875 142 368 -1984
2019-09-13 08:08:46 GMT 43.755566 5.931898 17,250 142 370 -1856
2019-09-13 08:08:41 GMT 43.761570 5.925555 17,200 142 372 -1536
2019-09-13 08:08:36 GMT 43.769203 5.917380 17,325 142 375 -1536
2019-09-13 08:08:30 GMT 43.776375 5.909794 17,475 142 377 -2048
2019-09-13 08:08:25 GMT 43.783310 5.902405 17,625 142 377 -2304
2019-09-13 08:08:19 GMT 43.791595 5.893526 17,850 142 379 -2368
2019-09-13 08:08:15 GMT 43.798279 5.886436 18,025 142 380 -2240
2019-09-13 08:08:09 GMT 43.806610 5.877494 18,275 142 380 -2176
2019-09-13 08:08:05 GMT 43.813339 5.870404 18,400 142 383 -2176
2019-09-13 08:07:58 GMT 43.821484 5.861795 18,600 142 383 -2176
2019-09-13 08:07:54 GMT 43.827068 5.855778 18,750 142 384 -2112
2019-09-13 08:07:49 GMT 43.833820 5.848585 18,900 142 385 -2112
2019-09-13 08:07:46 GMT 43.839455 5.842569 19,050 142 385 -2176
2019-09-13 08:07:43 GMT 43.842293 5.839560 19,100 142 387 -2240
2019-09-13 08:07:36 GMT 43.854492 5.826522 19,400 142 388 -2240
2019-09-13 08:07:33 GMT 43.857002 5.823800 19,475 142 388 -2240
2019-09-13 08:07:24 GMT 43.874695 5.804901 19,900 142 390 -2048
2019-09-13 08:07:17 GMT 43.878937 5.800334 20,000 142 392 -2112
2019-09-13 08:07:12 GMT 43.886703 5.792018 20,175 142 392 -2240
2019-09-13 08:07:02 GMT 43.902512 5.774976 20,550 142 394 -2304
2019-09-13 08:06:57 GMT 43.908585 5.768476 20,725 142 395 -2432
2019-09-13 08:06:51 GMT 43.917290 5.759190 20,950 142 396 -2496
2019-09-13 08:06:42 GMT 43.930298 5.745211 21,325 142 396 -2432
2019-09-13 08:06:38 GMT 43.935818 5.739310 21,450 142 397 -2368
2019-09-13 08:06:33 GMT 43.944855 5.729626 21,675 142 398 -2240
2019-09-13 08:06:30 GMT 43.947739 5.726496 21,750 142 399 -2176
2019-09-13 08:06:21 GMT 43.960007 5.713274 22,050 142 400 -2112
2019-09-13 08:06:18 GMT 43.965565 5.707267 22,175 142 401 -2112
2019-09-13 08:06:12 GMT 43.974361 5.697784 22,375 142 402 -2048
2019-09-13 08:06:08 GMT 43.979668 5.692095 22,500 142 404 -2048
2019-09-13 08:06:02 GMT 43.991226 5.679676 22,750 142 406 -1920
2019-09-13 08:05:56 GMT 43.997177 5.673289 25,575 141 420 -2432
2019-09-13 08:05:50 GMT 44.005878 5.663975 23,025 142 411 -1792
2019-09-13 08:05:47 GMT 44.011551 5.657831 23,125 142 412 -2496
2019-09-13 08:05:41 GMT 44.022125 5.646449 23,400 142 411 -2944
2019-09-13 08:05:35 GMT 44.029339 5.638668 23,650 142 411 -2944
2019-09-13 08:05:30 GMT 44.036507 5.630886 23,850 142 411 -2880
2019-09-13 08:05:25 GMT 44.044006 5.622764 25,550 141 420 -2560
2019-09-13 08:05:19 GMT 44.053921 5.612117 24,400 142 411 -2752
2019-09-13 08:05:13 GMT 44.061401 5.603985 24,575 142 410 -2560
2019-09-13 08:05:10 GMT 44.068588 5.596193 24,800 142 411 -2176
2019-09-13 08:05:01 GMT 44.080360 5.583540 25,125 142 415 -1920
2019-09-13 08:04:52 GMT 44.094040 5.568791 25,375 142 418 -2176
2019-09-13 08:04:45 GMT 44.104103 5.557840 25,700 141 420 -2432
2019-09-13 08:04:39 GMT 44.115135 5.545872 25,850 141 420 -2688
2019-09-13 08:04:33 GMT 44.121838 5.538548 26,050 142 421 -2688
2019-09-13 08:04:29 GMT 44.128922 5.530914 26,225 142 421 -2688
2019-09-13 08:04:25 GMT 44.135696 5.523568 26,425 142 421 -2560
2019-09-13 08:04:20 GMT 44.142136 5.516575 26,600 142 422 -2496
2019-09-13 08:04:17 GMT 44.148010 5.510282 26,850 142 423 -2432
2019-09-13 08:04:13 GMT 44.158493 5.498849 27,000 142 424 -2304
2019-09-13 08:04:07 GMT 44.162842 5.494186 27,100 141 425 -2176
2019-09-13 08:04:01 GMT 44.173416 5.482689 27,475 142 428 -2112
2019-09-13 08:03:57 GMT 44.178726 5.476946 27,500 141 430 -2240
2019-09-13 08:03:47 GMT 44.198788 5.455114 27,925 141 431 -2624
2019-09-13 08:03:38 GMT 44.208843 5.444195 28,200 141 431 -3136
2019-09-13 08:03:35 GMT 44.212921 5.439737 28,350 141 431 -2880
2019-09-13 08:03:32 GMT 44.217957 5.434243 28,425 141 431 -2880
2019-09-13 08:03:28 GMT 44.224228 5.427442 28,750 141 432 -1856
2019-09-13 08:03:25 GMT 44.228954 5.422289 28,825 141 435 -1728
2019-09-13 08:03:22 GMT 44.233704 5.417110 28,800 141 434 -1728
2019-09-13 08:03:18 GMT 44.241302 5.408739 28,975 141 437 -1920
2019-09-13 08:03:11 GMT 44.251205 5.397972 29,175 141 439 -2368
2019-09-13 08:03:08 GMT 44.255676 5.393081 29,275 141 439 -2752
2019-09-13 08:03:04 GMT 44.262054 5.386114 29,525 141 439 -2816
2019-09-13 08:03:00 GMT 44.268173 5.379508 29,625 141 439 -2752
2019-09-13 08:02:57 GMT 44.272945 5.374257 29,725 141 440 -2496
2019-09-13 08:02:54 GMT 44.279709 5.366887 29,925 141 440 -2432
2019-09-13 08:02:51 GMT 44.284492 5.361663 30,050 141 441 -2368
2019-09-13 08:02:47 GMT 44.289009 5.356773 30,125 141 442 -2304
2019-09-13 08:02:41 GMT 44.299297 5.345452 30,375 141 444 -2240
2019-09-13 08:02:36 GMT 44.311584 5.331987 31,400 141 445 -2304
2019-09-13 08:02:33 GMT 44.311584 5.331987 30,650 141 445 -2304
2019-09-13 08:02:30 GMT 44.317108 5.325950 30,800 141 446 -2368
2019-09-13 08:02:26 GMT 44.324574 5.317785 30,875 141 446 -2432
2019-09-13 08:02:22 GMT 44.330395 5.311354 31,100 141 448 -2496
2019-09-13 08:02:18 GMT 44.335922 5.305285 32,350 138 450 -2368
2019-09-13 08:02:15 GMT 44.342377 5.298026 31,400 139 449 -2432
2019-09-13 08:02:11 GMT 44.349106 5.290252 31,500 139 449 -2432
2019-09-13 08:02:08 GMT 44.351620 5.287237 31,725 138 450 -2368
2019-09-13 08:02:04 GMT 44.363537 5.272701 32,175 136 454 -1856
2019-09-13 08:02:01 GMT 44.363537 5.272701 31,950 137 453 -1792
2019-09-13 08:01:58 GMT 44.368149 5.266833 32,025 137 453 -1856
2019-09-13 08:01:55 GMT 44.372753 5.260843 32,100 136 454 -1856
2019-09-13 08:01:50 GMT 44.380371 5.250680 32,250 135 455 -2432
2019-09-13 08:01:45 GMT 44.387466 5.240740 32,500 134 455 -2944
2019-09-13 08:01:39 GMT 44.395615 5.228838 32,750 133 454 -2752
2019-09-13 08:01:36 GMT 44.401886 5.219291 32,950 132 454 -2752
2019-09-13 08:01:30 GMT 44.408878 5.208390 33,200 131 453 -3136
2019-09-13 08:01:27 GMT 44.415207 5.198364 33,425 131 450 -3392
2019-09-13 08:01:23 GMT 44.424801 5.183135 33,925 131 446 -1728
2019-09-13 08:01:18 GMT 44.424801 5.183135 33,775 131 446 -1920
2019-09-13 08:01:15 GMT 44.430248 5.174494 33,925 131 446 -1152
2019-09-13 08:01:12 GMT 44.433552 5.169335 34,000 131 444 0
2019-09-13 08:01:09 GMT 44.441940 5.155988 34,000 131 444 0
2019-09-13 08:01:03 GMT 44.451988 5.140061 34,000 131 445 0
2019-09-13 08:00:58 GMT 44.451988 5.140061 34,000 131 444 0
2019-09-13 08:00:54 GMT 44.458786 5.129242 34,000 131 444 0
2019-09-13 08:00:50 GMT 44.465023 5.119361 34,000 131 444 0
2019-09-13 08:00:47 GMT 44.466934 5.116294 34,000 131 444 0
2019-09-13 08:00:44 GMT 44.472931 5.106812 34,000 131 444 0
2019-09-13 08:00:40 GMT 44.477543 5.099532 34,000 132 445 0
2019-09-13 08:00:37 GMT 44.482525 5.091895 34,000 132 444 0
2019-09-13 08:00:34 GMT 44.486755 5.085558 34,000 133 445 0
2019-09-13 08:00:27 GMT 44.495605 5.072736 34,000 134 445 0
2019-09-13 08:00:23 GMT 44.502319 5.063389 34,000 135 445 64
2019-09-13 08:00:20 GMT 44.504963 5.059807 34,000 136 445 64
2019-09-13 08:00:17 GMT 44.511200 5.051488 34,000 136 445 64
2019-09-13 08:00:14 GMT 44.516369 5.044801 34,000 137 445 64
2019-09-13 08:00:11 GMT 44.526798 5.031738 34,000 138 446 64
2019-09-13 08:00:06 GMT 44.526798 5.031738 34,000 138 446 64
2019-09-13 08:00:02 GMT 44.534199 5.022494 34,000 138 446 -64
2019-09-13 07:59:58 GMT 44.539738 5.015527 33,975 138 446 0
2019-09-13 07:59:55 GMT 44.544674 5.009364 33,975 138 446 0
2019-09-13 07:59:51 GMT 44.550522 5.002049 34,000 138 446 -64
2019-09-13 07:59:45 GMT 44.559128 4.991259 34,000 138 446 0
2019-09-13 07:59:40 GMT 44.566181 4.982434 34,000 138 446 -64
2019-09-13 07:59:37 GMT 44.570801 4.976676 34,000 138 444 -128
2019-09-13 07:59:34 GMT 44.576000 4.970108 35,025 138 444 -256
2019-09-13 07:59:30 GMT 44.582428 4.962093 34,025 138 444 -192
2019-09-13 07:59:27 GMT 44.591537 4.950583 34,050 138 442 -576
2019-09-13 07:59:24 GMT 44.591537 4.950583 35,025 138 443 -768
2019-09-13 07:59:19 GMT 44.598862 4.941428 34,075 138 443 -832
2019-09-13 07:59:16 GMT 44.604027 4.934938 34,125 138 441 -960
2019-09-13 07:59:12 GMT 44.610729 4.926497 34,200 138 441 -960
2019-09-13 07:59:09 GMT 44.614967 4.921205 34,250 138 441 -960
2019-09-13 07:59:05 GMT 44.621063 4.913568 34,300 138 440 -896
2019-09-13 07:59:02 GMT 44.626511 4.906735 34,350 138 439 -896
2019-09-13 07:58:58 GMT 44.630142 4.902180 34,400 138 439 -896
2019-09-13 07:58:54 GMT 44.636753 4.893806 34,450 138 439 -896
2019-09-13 07:58:50 GMT 44.642487 4.886562 34,475 138 438 -960
2019-09-13 07:58:47 GMT 44.646698 4.881265 34,550 138 438 -960
2019-09-13 07:58:44 GMT 44.653336 4.872894 34,625 137 438 -960
2019-09-13 07:58:40 GMT 44.658493 4.866474 34,625 137 438 -960
2019-09-13 07:58:37 GMT 44.662994 4.860731 34,700 138 439 -960
2019-09-13 07:58:33 GMT 44.669037 4.853145 34,775 138 439 -960
2019-09-13 07:58:30 GMT 44.672970 4.848186 34,800 138 439 -960
2019-09-13 07:58:27 GMT 44.679024 4.840549 34,875 137 440 -896
2019-09-13 07:58:21 GMT 44.692940 4.822998 35,000 138 440 -384
2019-09-13 07:58:17 GMT 44.692940 4.822998 35,000 138 440 -256
2019-09-13 07:58:13 GMT 44.699596 4.814624 35,000 137 440 0
2019-09-13 07:58:10 GMT 44.704147 4.808873 35,025 138 439 0
2019-09-13 07:58:06 GMT 44.708954 4.802791 35,025 137 440 0
2019-09-13 07:58:02 GMT 44.715637 4.794421 35,025 137 440 0
2019-09-13 07:57:59 GMT 44.719254 4.789843 35,025 138 439 0
2019-09-13 07:57:55 GMT 44.725891 4.781407 35,025 137 440 0
2019-09-13 07:57:50 GMT 44.733170 4.772252 35,025 137 440 0
2019-09-13 07:57:47 GMT 44.739494 4.764248 35,025 137 440 0
2019-09-13 07:57:44 GMT 44.741913 4.761166 35,000 137 440 0
2019-09-13 07:57:40 GMT 44.750385 4.750448 35,000 137 440 64
2019-09-13 07:57:37 GMT 44.753414 4.746630 35,000 137 440 64
2019-09-13 07:57:34 GMT 44.756744 4.742432 35,000 137 440 0
2019-09-13 07:57:31 GMT 44.762787 4.734846 35,000 137 440 0
2019-09-13 07:57:27 GMT 44.769470 4.726410 35,000 137 440 0
2019-09-13 07:57:24 GMT 44.773384 4.721442 35,000 137 440 0
2019-09-13 07:57:21 GMT 44.777016 4.716819 35,025 137 440 0
2019-09-13 07:57:17 GMT 44.783672 4.708445 35,025 137 440 0
2019-09-13 07:57:14 GMT 44.787907 4.703086 35,025 137 440 0
2019-09-13 07:57:11 GMT 44.792747 4.696990 35,025 137 440 0
2019-09-13 07:57:06 GMT 44.800278 4.687369 35,000 137 440 0
2019-09-13 07:56:58 GMT 44.813278 4.670931 35,025 137 439 0
2019-09-13 07:56:55 GMT 44.818119 4.664768 35,025 137 440 0
2019-09-13 07:56:51 GMT 44.823853 4.657549 35,000 137 440 64
2019-09-13 07:56:47 GMT 44.828968 4.651035 35,000 137 440 64
2019-09-13 07:56:44 GMT 44.833511 4.645255 35,000 137 440 64
2019-09-13 07:56:40 GMT 44.838959 4.638388 35,000 137 440 64
2019-09-13 07:56:36 GMT 44.845596 4.629953 35,000 137 440 64
2019-09-13 07:56:33 GMT 44.852524 4.621091 35,000 137 440 0
2019-09-13 07:56:30 GMT 44.854942 4.618009 35,000 137 440 0
2019-09-13 07:56:26 GMT 44.862160 4.608832 35,000 137 439 0
2019-09-13 07:56:23 GMT 44.865791 4.604209 35,000 137 439 0
2019-09-13 07:56:17 GMT 44.874527 4.593070 35,000 137 439 0
2019-09-13 07:56:14 GMT 44.878452 4.588065 35,000 137 439 0
2019-09-13 07:56:10 GMT 44.885670 4.578887 35,000 137 439 0
2019-09-13 07:56:06 GMT 44.890182 4.573124 35,000 137 439 0
2019-09-13 07:56:03 GMT 44.895908 4.565824 35,000 137 439 0
2019-09-13 07:55:59 GMT 44.901031 4.559326 35,000 137 439 0
2019-09-13 07:55:53 GMT 44.911880 4.545528 35,000 137 438 0
2019-09-13 07:55:49 GMT 44.916393 4.539765 35,000 137 438 0
2019-09-13 07:55:46 GMT 44.921188 4.533602 35,000 137 438 0
2019-09-13 07:55:42 GMT 44.928726 4.524013 35,000 137 438 64
2019-09-13 07:55:39 GMT 44.931702 4.520220 34,975 137 438 64
2019-09-13 07:55:35 GMT 44.937435 4.512902 35,000 137 438 64
2019-09-13 07:55:32 GMT 44.947311 4.500209 35,000 137 438 64
2019-09-13 07:55:29 GMT 44.947311 4.500209 35,000 137 438 64
2019-09-13 07:55:26 GMT 44.951523 4.494847 34,975 137 438 0
2019-09-13 07:55:21 GMT 44.957520 4.487196 34,975 137 438 0
2019-09-13 07:55:18 GMT 44.962921 4.480264 34,975 137 438 0
2019-09-13 07:55:15 GMT 44.968018 4.473780 34,975 137 438 0
2019-09-13 07:55:11 GMT 44.972858 4.467617 34,975 137 438 0
2019-09-13 07:55:08 GMT 44.977936 4.461103 35,000 137 438 0
2019-09-13 07:55:04 GMT 44.983662 4.453817 35,000 137 438 0
2019-09-13 07:55:00 GMT 44.989666 4.446180 35,000 137 438 0
2019-09-13 07:54:57 GMT 44.993546 4.441158 35,000 137 438 0
2019-09-13 07:54:54 GMT 44.998650 4.434658 35,000 137 437 0
2019-09-13 07:54:50 GMT 45.004654 4.427021 35,000 137 437 0
2019-09-13 07:54:47 GMT 45.008846 4.421662 35,000 137 437 0
2019-09-13 07:54:43 GMT 45.014557 4.414346 35,000 137 437 0
2019-09-13 07:54:39 GMT 45.021698 4.405191 35,000 137 437 0
2019-09-13 07:54:36 GMT 45.026505 4.399043 35,000 137 437 0
2019-09-13 07:54:32 GMT 45.031006 4.393258 35,000 137 437 0
2019-09-13 07:54:29 GMT 45.036358 4.386358 35,000 137 436 0
2019-09-13 07:54:26 GMT 45.039944 4.381803 35,000 137 436 0
2019-09-13 07:54:23 GMT 45.045044 4.375240 35,000 137 436 0
2019-09-13 07:54:20 GMT 45.049805 4.369158 35,000 137 437 0
2019-09-13 07:54:17 GMT 45.055206 4.362226 35,000 137 436 0
2019-09-13 07:54:14 GMT 45.060284 4.355744 35,000 137 436 0
2019-09-13 07:54:10 GMT 45.064774 4.349997 35,000 137 437 -64
2019-09-13 07:54:06 GMT 45.071037 4.341944 35,000 137 437 -64
2019-09-13 07:54:03 GMT 45.080627 4.329618 35,000 137 436 -64
2019-09-13 07:53:59 GMT 45.080627 4.329618 35,000 137 436 0
2019-09-13 07:53:56 GMT 45.087799 4.320441 35,000 137 437 0
2019-09-13 07:53:53 GMT 45.089859 4.317758 35,000 137 437 0
2019-09-13 07:53:49 GMT 45.095856 4.310107 35,000 137 437 0
2019-09-13 07:53:45 GMT 45.103905 4.299741 35,000 137 437 0
2019-09-13 07:53:42 GMT 45.105721 4.297396 35,000 137 437 0
2019-09-13 07:53:38 GMT 45.112286 4.288955 35,000 137 436 0
2019-09-13 07:53:35 GMT 45.116776 4.283164 35,000 137 437 0
2019-09-13 07:53:32 GMT 45.121582 4.277017 35,000 137 437 0
2019-09-13 07:53:28 GMT 45.126343 4.270870 35,000 137 437 0
2019-09-13 07:53:24 GMT 45.133839 4.261289 35,000 137 438 0
2019-09-13 07:53:21 GMT 45.137981 4.255862 35,000 137 438 0
2019-09-13 07:53:18 GMT 45.141907 4.250859 35,000 137 438 0
2019-09-13 07:53:14 GMT 45.148453 4.242358 35,000 137 438 0
2019-09-13 07:53:11 GMT 45.152969 4.236569 35,000 137 438 0
2019-09-13 07:53:08 GMT 45.157471 4.230783 35,000 137 438 0
2019-09-13 07:53:05 GMT 45.163120 4.223506 35,000 137 438 -64
2019-09-13 07:53:02 GMT 45.172710 4.211113 35,000 137 438 -64
2019-09-13 07:52:58 GMT 45.172710 4.211113 35,000 137 438 -64
2019-09-13 07:52:53 GMT 45.179317 4.202605 35,025 137 438 -64
2019-09-13 07:52:50 GMT 45.183792 4.196843 35,025 137 438 0
2019-09-13 07:52:47 GMT 45.188004 4.191415 35,025 137 438 0
2019-09-13 07:52:41 GMT 45.197289 4.179427 35,000 137 440 0
2019-09-13 07:52:36 GMT 45.204502 4.170182 35,025 137 439 0
2019-09-13 07:52:33 GMT 45.210205 4.162837 35,025 137 439 0
2019-09-13 07:52:30 GMT 45.214371 4.157410 35,000 137 440 0
2019-09-13 07:52:27 GMT 45.223389 4.145769 35,025 137 439 0
2019-09-13 07:52:21 GMT 45.229084 4.138429 35,025 137 439 64
2019-09-13 07:52:16 GMT 45.235088 4.130658 35,025 137 440 64
2019-09-13 07:52:11 GMT 45.246780 4.115492 35,000 137 440 0
2019-09-13 07:52:08 GMT 45.246780 4.115492 35,000 137 440 0
2019-09-13 07:52:05 GMT 45.251587 4.109279 35,000 137 440 0
2019-09-13 07:52:02 GMT 45.256393 4.103067 35,000 137 440 0
2019-09-13 07:51:58 GMT 45.262089 4.095690 35,000 137 440 0
2019-09-13 07:51:55 GMT 45.267792 4.088287 35,000 137 440 0
2019-09-13 07:51:52 GMT 45.272598 4.082075 35,000 137 440 0
2019-09-13 07:51:48 GMT 45.276520 4.077000 35,000 137 440 0
2019-09-13 07:51:45 GMT 45.281315 4.070837 35,000 137 440 64
2019-09-13 07:51:39 GMT 45.291412 4.058206 35,000 140 440 64
2019-09-13 07:51:35 GMT 45.297684 4.050882 35,000 141 440 0
2019-09-13 07:51:31 GMT 45.304779 4.043165 35,000 143 441 0
2019-09-13 07:51:28 GMT 45.308075 4.039699 35,000 144 440 0
2019-09-13 07:51:25 GMT 45.314072 4.033683 35,000 146 440 0
2019-09-13 07:51:22 GMT 45.320160 4.027928 35,000 146 441 0
2019-09-13 07:51:17 GMT 45.327026 4.021715 35,000 148 441 0
2019-09-13 07:51:14 GMT 45.331593 4.017848 35,000 150 441 0
2019-09-13 07:51:10 GMT 45.340065 4.011015 35,000 151 442 0
2019-09-13 07:51:07 GMT 45.345093 4.007129 34,975 151 441 0
2019-09-13 07:51:04 GMT 45.349777 4.003601 34,975 152 441 0
2019-09-13 07:51:01 GMT 45.355545 3.999285 34,975 152 441 0
2019-09-13 07:50:57 GMT 45.363464 3.993334 34,975 152 441 0
2019-09-13 07:50:52 GMT 45.372116 3.986860 34,975 152 441 0
2019-09-13 07:50:49 GMT 45.377884 3.982479 34,975 152 441 0
2019-09-13 07:50:46 GMT 45.384010 3.977922 34,975 152 441 0
2019-09-13 07:50:42 GMT 45.390884 3.972735 34,975 152 441 0
2019-09-13 07:50:39 GMT 45.396652 3.968419 34,975 152 441 0
2019-09-13 07:50:36 GMT 45.401688 3.964626 34,975 152 441 0
2019-09-13 07:50:31 GMT 45.409607 3.958675 34,975 152 441 0
2019-09-13 07:50:28 GMT 45.421532 3.949719 34,975 152 441 0
2019-09-13 07:50:25 GMT 45.421532 3.949719 34,975 152 441 0
2019-09-13 07:50:20 GMT 45.429443 3.943757 34,975 152 441 0
2019-09-13 07:50:17 GMT 45.434143 3.940234 34,975 152 441 0
2019-09-13 07:50:14 GMT 45.439545 3.936187 34,975 152 441 0
2019-09-13 07:50:09 GMT 45.448902 3.929086 35,000 152 441 0
2019-09-13 07:50:05 GMT 45.459702 3.920980 35,000 152 441 -64
2019-09-13 07:49:59 GMT 45.473053 3.910937 35,000 152 441 -64
2019-09-13 07:49:56 GMT 45.473053 3.910937 35,000 152 441 -64
2019-09-13 07:49:52 GMT 45.479507 3.906032 35,000 152 441 -64
2019-09-13 07:49:47 GMT 45.489624 3.898446 35,000 152 441 -64
2019-09-13 07:49:44 GMT 45.496433 3.893247 35,000 152 441 0
2019-09-13 07:49:39 GMT 45.502949 3.888356 35,000 152 441 0
2019-09-13 07:49:36 GMT 45.509079 3.883732 35,000 152 441 0
2019-09-13 07:49:33 GMT 45.514847 3.879351 35,000 152 441 0
2019-09-13 07:49:29 GMT 45.521301 3.874446 35,000 152 441 0
2019-09-13 07:49:26 GMT 45.526382 3.870653 35,000 152 442 0
2019-09-13 07:49:23 GMT 45.534302 3.864637 35,000 152 442 0
2019-09-13 07:49:18 GMT 45.541168 3.859484 35,000 152 442 0
2019-09-13 07:49:14 GMT 45.548035 3.854258 35,000 152 442 0
2019-09-13 07:49:11 GMT 45.555222 3.848832 35,000 151 444 0
2019-09-13 07:49:07 GMT 45.562454 3.843339 35,000 151 442 0
2019-09-13 07:49:04 GMT 45.566803 3.840124 35,000 151 442 0
2019-09-13 07:49:01 GMT 45.571152 3.836841 35,000 151 442 0
2019-09-13 07:48:56 GMT 45.580879 3.829422 35,000 151 442 -64
2019-09-13 07:48:53 GMT 45.585571 3.825855 35,000 151 442 0
2019-09-13 07:48:49 GMT 45.594612 3.819054 35,000 151 442 -64
2019-09-13 07:48:44 GMT 45.604385 3.811653 35,000 151 442 -64
2019-09-13 07:48:41 GMT 45.608734 3.808370 35,025 151 442 -64
2019-09-13 07:48:38 GMT 45.613083 3.805088 35,025 151 442 -64
2019-09-13 07:48:34 GMT 45.619938 3.799896 35,025 151 443 -64
2019-09-13 07:48:31 GMT 45.628967 3.793030 35,025 151 443 -64
2019-09-13 07:48:28 GMT 45.631851 3.790819 35,025 151 443 -64
2019-09-13 07:48:23 GMT 45.650288 3.776825 35,025 151 444 0
2019-09-13 07:48:18 GMT 45.650288 3.776825 35,025 151 444 0
2019-09-13 07:48:13 GMT 45.659363 3.769918 35,025 151 444 0
2019-09-13 07:48:07 GMT 45.668747 3.762750 35,025 151 444 0
2019-09-13 07:48:04 GMT 45.674561 3.758329 35,025 151 444 64
2019-09-13 07:48:01 GMT 45.681431 3.753136 35,000 151 444 0
2019-09-13 07:47:57 GMT 45.688339 3.747879 35,025 151 444 0
2019-09-13 07:47:53 GMT 45.693768 3.743729 35,025 151 444 0
2019-09-13 07:47:50 GMT 45.706104 3.734322 35,000 151 445 0
2019-09-13 07:47:47 GMT 45.706104 3.734322 35,000 151 445 0
2019-09-13 07:47:43 GMT 45.712624 3.729378 35,000 151 445 0
2019-09-13 07:47:40 GMT 45.718781 3.724700 35,000 151 445 0
2019-09-13 07:47:37 GMT 45.724258 3.720520 35,000 151 445 0
2019-09-13 07:47:32 GMT 45.732964 3.713860 35,025 151 445 0
2019-09-13 07:47:29 GMT 45.738419 3.709694 35,025 151 445 64
2019-09-13 07:47:26 GMT 45.743500 3.705876 35,025 151 445 64
2019-09-13 07:47:21 GMT 45.752930 3.698641 35,000 151 445 64
2019-09-13 07:47:16 GMT 45.761673 3.692009 35,000 151 445 0
2019-09-13 07:47:10 GMT 45.774719 3.682028 35,000 151 445 0
2019-09-13 07:47:06 GMT 45.781658 3.676781 35,000 151 445 0
2019-09-13 07:47:00 GMT 45.790363 3.670120 35,000 151 446 -64
2019-09-13 07:46:57 GMT 45.796555 3.665414 35,000 151 446 0
2019-09-13 07:46:53 GMT 45.805634 3.658447 35,000 151 446 0
2019-09-13 07:46:50 GMT 45.809265 3.655632 35,000 151 446 -64
2019-09-13 07:46:44 GMT 45.820541 3.647059 35,000 151 446 -64
2019-09-13 07:46:40 GMT 45.827820 3.641499 35,000 151 446 -64
2019-09-13 07:46:36 GMT 45.837612 3.633934 35,025 151 446 -64
2019-09-13 07:46:32 GMT 45.842735 3.630020 35,025 151 446 -64
2019-09-13 07:46:28 GMT 45.848553 3.625557 35,025 151 446 0
2019-09-13 07:46:22 GMT 45.860191 3.616699 35,025 151 446 64
2019-09-13 07:46:19 GMT 45.866013 3.612236 35,025 151 446 0
2019-09-13 07:46:14 GMT 45.875107 3.605257 35,025 151 446 0
2019-09-13 07:46:11 GMT 45.879837 3.601593 35,025 151 446 0
2019-09-13 07:46:08 GMT 45.893280 3.591256 35,025 151 447 0
2019-09-13 07:46:04 GMT 45.893280 3.591256 35,025 151 446 0
2019-09-13 07:45:58 GMT 45.903858 3.583191 35,025 151 447 0
2019-09-13 07:45:54 GMT 45.910034 3.578461 35,025 151 447 0
2019-09-13 07:45:51 GMT 45.922806 3.568634 35,025 151 447 0
2019-09-13 07:45:47 GMT 45.922806 3.568634 35,025 151 447 0
2019-09-13 07:45:44 GMT 45.930496 3.562786 35,025 151 448 0
2019-09-13 07:45:39 GMT 45.938507 3.556623 35,025 151 447 0
2019-09-13 07:45:36 GMT 45.942856 3.553273 35,025 151 447 0
2019-09-13 07:45:32 GMT 45.951992 3.546249 35,025 151 448 0
2019-09-13 07:45:27 GMT 45.960747 3.539520 35,025 151 447 64
2019-09-13 07:45:23 GMT 45.968399 3.533645 35,025 151 447 64
2019-09-13 07:45:19 GMT 45.975677 3.528018 35,000 151 447 64
2019-09-13 07:45:16 GMT 45.980759 3.524066 35,000 151 447 64
2019-09-13 07:45:13 GMT 45.986954 3.519264 35,000 151 448 64
2019-09-13 07:45:08 GMT 45.995007 3.513084 35,000 151 448 0
2019-09-13 07:45:05 GMT 46.000080 3.509171 35,000 151 448 0
2019-09-13 07:45:01 GMT 46.007767 3.503232 35,000 151 448 0
2019-09-13 07:44:58 GMT 46.013580 3.498744 35,000 151 448 0
2019-09-13 07:44:55 GMT 46.020519 3.493446 35,000 151 448 0
2019-09-13 07:44:51 GMT 46.033264 3.483604 35,000 151 448 0
2019-09-13 07:44:47 GMT 46.033264 3.483604 35,000 151 448 0
2019-09-13 07:44:41 GMT 46.047520 3.472641 35,000 151 448 0
2019-09-13 07:44:37 GMT 46.051895 3.469276 35,000 151 448 0
2019-09-13 07:44:33 GMT 46.059158 3.463646 35,000 151 447 0
2019-09-13 07:44:30 GMT 46.064278 3.459732 35,000 151 447 0
2019-09-13 07:44:27 GMT 46.069748 3.455535 35,000 151 447 64
2019-09-13 07:44:22 GMT 46.079178 3.448233 35,000 151 447 64
2019-09-13 07:44:19 GMT 46.084667 3.444008 35,000 151 447 64
2019-09-13 07:44:16 GMT 46.089741 3.440025 35,000 151 447 0
2019-09-13 07:44:11 GMT 46.099239 3.432747 35,000 151 447 0
2019-09-13 07:44:07 GMT 46.106873 3.426864 35,000 151 447 0
2019-09-13 07:44:03 GMT 46.113762 3.421486 35,000 151 447 0
2019-09-13 07:43:58 GMT 46.128334 3.410225 35,000 151 446 0
2019-09-13 07:43:55 GMT 46.132324 3.407102 35,000 151 447 0
2019-09-13 07:43:52 GMT 46.132324 3.407102 35,000 151 446 0
2019-09-13 07:43:49 GMT 46.138870 3.402010 34,975 151 447 0
2019-09-13 07:43:45 GMT 46.146488 3.396080 35,000 151 447 0
2019-09-13 07:43:42 GMT 46.160660 3.385129 35,000 151 447 0
2019-09-13 07:43:38 GMT 46.160660 3.385129 35,000 151 447 0
2019-09-13 07:43:35 GMT 46.164322 3.382315 35,000 151 447 0
2019-09-13 07:43:30 GMT 46.174141 3.374657 34,975 151 447 64
2019-09-13 07:43:25 GMT 46.182148 3.368477 34,975 151 447 64
2019-09-13 07:43:19 GMT 46.192703 3.360343 34,975 151 447 0
2019-09-13 07:43:16 GMT 46.198860 3.355499 34,975 151 447 0
2019-09-13 07:43:12 GMT 46.206123 3.349869 34,975 151 447 0
2019-09-13 07:43:09 GMT 46.210876 3.346208 34,975 151 447 0
2019-09-13 07:43:04 GMT 46.219620 3.339442 34,975 151 447 -64
2019-09-13 07:42:59 GMT 46.230145 3.331192 34,975 151 447 0
2019-09-13 07:42:56 GMT 46.244339 3.320149 34,975 151 447 0
2019-09-13 07:42:52 GMT 46.244339 3.320149 34,975 151 447 -64
2019-09-13 07:42:49 GMT 46.248688 3.316799 34,975 151 447 -64
2019-09-13 07:42:42 GMT 46.259983 3.307983 35,000 151 447 -64
2019-09-13 07:42:39 GMT 46.266499 3.302902 35,000 151 447 -64
2019-09-13 07:42:32 GMT 46.278137 3.293839 35,000 151 447 -64
2019-09-13 07:42:29 GMT 46.285400 3.288208 35,000 151 447 -64
2019-09-13 07:42:25 GMT 46.291218 3.283676 35,000 151 447 -64
2019-09-13 07:42:18 GMT 46.304302 3.273445 35,000 151 447 0
2019-09-13 07:42:11 GMT 46.322502 3.259300 35,000 151 447 0
2019-09-13 07:42:08 GMT 46.322502 3.259300 35,000 151 447 0
2019-09-13 07:41:58 GMT 46.341019 3.244852 35,000 151 447 0
2019-09-13 07:41:51 GMT 46.355972 3.233208 35,000 151 448 0
2019-09-13 07:41:47 GMT 46.359970 3.230047 35,000 151 448 0
2019-09-13 07:41:44 GMT 46.366562 3.224956 35,000 151 448 0
2019-09-13 07:41:40 GMT 46.375305 3.218123 35,000 151 448 0
2019-09-13 07:41:37 GMT 46.378967 3.215310 35,000 151 448 0
2019-09-13 07:41:34 GMT 46.383316 3.211893 35,000 151 448 0
2019-09-13 07:41:29 GMT 46.393913 3.203613 35,000 151 448 0
2019-09-13 07:41:24 GMT 46.402664 3.196815 35,000 151 448 0
2019-09-13 07:41:17 GMT 46.415451 3.186839 35,000 151 449 0
2019-09-13 07:41:14 GMT 46.420914 3.182533 35,000 151 449 0
2019-09-13 07:41:10 GMT 46.427479 3.177383 35,000 160 450 0
2019-09-13 07:41:06 GMT 46.435867 3.170761 35,000 151 450 0
2019-09-13 07:41:03 GMT 46.440605 3.167084 35,000 152 449 0
2019-09-13 07:40:59 GMT 46.450150 3.159737 34,975 152 449 0
2019-09-13 07:40:55 GMT 46.455688 3.155622 34,975 153 449 0
2019-09-13 07:40:50 GMT 46.463882 3.149727 34,975 154 449 0
2019-09-13 07:40:46 GMT 46.471390 3.144568 35,000 155 450 0
2019-09-13 07:40:42 GMT 46.480873 3.138451 35,000 155 450 0
2019-09-13 07:40:37 GMT 46.490433 3.132577 35,000 159 449 0
2019-09-13 07:40:33 GMT 46.497391 3.128558 35,000 158 450 0
2019-09-13 07:40:29 GMT 46.505547 3.123962 35,000 160 450 0
2019-09-13 07:40:26 GMT 46.509842 3.121725 35,000 159 449 0
2019-09-13 07:40:23 GMT 46.516846 3.118041 35,000 160 450 0
2019-09-13 07:40:19 GMT 46.524719 3.114021 35,000 160 450 0
2019-09-13 07:40:15 GMT 46.532127 3.110161 35,000 160 450 0
2019-09-13 07:40:11 GMT 46.542755 3.104710 35,000 160 451 -64
2019-09-13 07:40:04 GMT 46.554520 3.098680 35,000 160 451 -64
2019-09-13 07:40:01 GMT 46.560013 3.095867 35,000 160 451 -64
2019-09-13 07:39:57 GMT 46.567062 3.092182 35,000 160 451 -64
2019-09-13 07:39:54 GMT 46.572952 3.089149 35,000 160 451 -64
2019-09-13 07:39:51 GMT 46.579605 3.085751 35,000 160 451 -64
2019-09-13 07:39:47 GMT 46.588257 3.081263 35,025 160 451 0
2019-09-13 07:39:44 GMT 46.593342 3.078644 35,025 160 451 0
2019-09-13 07:39:40 GMT 46.600418 3.075005 35,025 160 451 0
2019-09-13 07:39:36 GMT 46.609077 3.070541 35,025 160 451 0
2019-09-13 07:39:31 GMT 46.618881 3.065520 35,025 160 451 0
2019-09-13 07:39:28 GMT 46.624020 3.062851 35,025 160 452 -64
2019-09-13 07:39:23 GMT 46.634628 3.057348 35,025 160 452 -64
2019-09-13 07:39:20 GMT 46.640121 3.054534 35,025 160 452 -64
2019-09-13 07:39:17 GMT 46.645248 3.051865 35,025 160 452 -64
2019-09-13 07:39:12 GMT 46.655491 3.046577 35,025 160 452 0
2019-09-13 07:39:08 GMT 46.664150 3.042114 35,050 160 452 0
2019-09-13 07:39:04 GMT 46.672440 3.037787 35,025 160 454 64
2019-09-13 07:38:58 GMT 46.692547 3.027351 35,025 160 454 64
2019-09-13 07:38:53 GMT 46.692547 3.027351 35,025 160 453 0
2019-09-13 07:38:50 GMT 46.699623 3.023643 35,025 160 453 0
2019-09-13 07:38:47 GMT 46.705582 3.020570 35,025 160 454 64
2019-09-13 07:38:42 GMT 46.715836 3.015278 35,025 160 454 64
2019-09-13 07:38:38 GMT 46.722572 3.011765 35,025 160 454 0
2019-09-13 07:38:35 GMT 46.731232 3.007301 35,025 160 454 64
2019-09-13 07:38:30 GMT 46.739548 3.002952 35,025 160 455 64
2019-09-13 07:38:27 GMT 46.745522 2.999886 35,025 160 455 64
2019-09-13 07:38:21 GMT 46.756210 2.994377 35,000 160 455 64
2019-09-13 07:38:18 GMT 46.763351 2.990626 35,025 160 455 64
2019-09-13 07:38:15 GMT 46.768066 2.988214 35,025 160 457 0
2019-09-13 07:38:12 GMT 46.774059 2.985123 35,025 160 455 64
2019-09-13 07:38:08 GMT 46.782764 2.980522 35,000 160 456 0
2019-09-13 07:38:01 GMT 46.797054 2.973106 35,000 160 456 0
2019-09-13 07:37:57 GMT 46.803387 2.969810 35,000 160 456 0
2019-09-13 07:37:52 GMT 46.814941 2.963830 35,000 160 456 0
2019-09-13 07:37:49 GMT 46.820892 2.960747 35,000 160 456 0
2019-09-13 07:37:46 GMT 46.826843 2.957600 35,025 160 456 0
2019-09-13 07:37:41 GMT 46.836021 2.952850 35,025 160 456 0
2019-09-13 07:37:36 GMT 46.846710 2.947283 35,025 160 456 0
2019-09-13 07:37:31 GMT 46.855499 2.942728 35,025 160 456 64
2019-09-13 07:37:27 GMT 46.863022 2.938774 35,025 160 456 64
2019-09-13 07:37:24 GMT 46.870190 2.935040 35,000 160 457 64
2019-09-13 07:37:20 GMT 46.878151 2.930955 35,000 160 457 0
2019-09-13 07:37:15 GMT 46.888485 2.925532 35,000 160 457 64
2019-09-13 07:37:11 GMT 46.896057 2.921608 35,000 160 456 64
2019-09-13 07:37:04 GMT 46.916325 2.910954 35,000 160 457 64
2019-09-13 07:36:57 GMT 46.923492 2.907222 35,000 160 457 64
2019-09-13 07:36:53 GMT 46.930660 2.903489 35,000 160 457 0
2019-09-13 07:36:50 GMT 46.938622 2.899334 35,000 160 457 0
2019-09-13 07:36:47 GMT 46.944950 2.896024 35,000 160 457 0
2019-09-13 07:36:44 GMT 46.949745 2.893489 35,000 160 457 0
2019-09-13 07:36:39 GMT 46.959290 2.888489 35,000 160 457 0
2019-09-13 07:36:33 GMT 46.972046 2.881869 35,000 160 458 0
2019-09-13 07:36:26 GMT 46.984360 2.875397 35,000 160 457 0
2019-09-13 07:36:23 GMT 46.991547 2.871689 35,000 160 457 0
2019-09-13 07:36:16 GMT 47.005051 2.864616 35,000 160 457 64
2019-09-13 07:36:11 GMT 47.014221 2.859826 35,000 160 458 0
2019-09-13 07:36:05 GMT 47.026566 2.853355 35,000 160 458 0
2019-09-13 07:36:02 GMT 47.034100 2.849332 34,975 160 458 64
2019-09-13 07:35:55 GMT 47.048813 2.841614 34,975 160 458 64
2019-09-13 07:35:50 GMT 47.056000 2.837837 34,975 160 458 64
2019-09-13 07:35:43 GMT 47.069946 2.830529 34,975 160 458 0
2019-09-13 07:35:39 GMT 47.079071 2.825684 34,975 160 458 -64
2019-09-13 07:35:32 GMT 47.093037 2.818416 34,975 160 458 -64
2019-09-13 07:35:28 GMT 47.102188 2.813599 34,975 160 458 -64
2019-09-13 07:35:23 GMT 47.111378 2.808767 34,975 160 458 -64
2019-09-13 07:35:18 GMT 47.126083 2.800964 35,000 160 458 -64
2019-09-13 07:35:10 GMT 47.145218 2.790939 35,000 160 458 -64
2019-09-13 07:35:06 GMT 47.145218 2.790939 35,000 160 458 -64
2019-09-13 07:35:02 GMT 47.155136 2.785668 35,000 160 458 -64
2019-09-13 07:34:59 GMT 47.159138 2.783555 35,000 160 458 -64
2019-09-13 07:34:56 GMT 47.164307 2.780846 35,000 160 458 -64
2019-09-13 07:34:52 GMT 47.174271 2.775597 35,000 160 458 0
2019-09-13 07:34:47 GMT 47.181393 2.771794 35,000 160 458 0
2019-09-13 07:34:44 GMT 47.189350 2.767639 35,000 160 458 0
2019-09-13 07:34:41 GMT 47.194145 2.765104 35,000 160 458 0
2019-09-13 07:34:38 GMT 47.199734 2.762146 35,000 160 458 0
2019-09-13 07:34:35 GMT 47.205273 2.759188 35,000 160 458 0
2019-09-13 07:34:29 GMT 47.217636 2.752625 35,000 160 458 0
2019-09-13 07:34:24 GMT 47.227982 2.747131 35,000 160 458 0
2019-09-13 07:34:19 GMT 47.237549 2.742050 35,000 160 459 0
2019-09-13 07:34:15 GMT 47.247940 2.736557 35,000 160 459 0
2019-09-13 07:34:09 GMT 47.257084 2.731722 35,000 160 459 0
2019-09-13 07:34:06 GMT 47.263870 2.728111 35,000 160 459 0
2019-09-13 07:34:03 GMT 47.270679 2.724539 35,000 160 460 0
2019-09-13 07:33:56 GMT 47.283482 2.717778 35,000 160 459 0
2019-09-13 07:33:51 GMT 47.294266 2.712044 35,000 160 460 0
2019-09-13 07:33:48 GMT 47.307453 2.705031 35,000 160 460 0
2019-09-13 07:33:40 GMT 47.315826 2.700577 35,000 160 460 0
2019-09-13 07:33:35 GMT 47.326633 2.694820 35,000 160 460 0
2019-09-13 07:33:32 GMT 47.331070 2.692474 35,000 160 460 64
2019-09-13 07:33:29 GMT 47.337852 2.688833 35,000 160 461 64
2019-09-13 07:33:25 GMT 47.346653 2.684185 35,000 160 461 64
2019-09-13 07:33:20 GMT 47.355881 2.679291 35,000 160 461 0
2019-09-13 07:33:17 GMT 47.361511 2.676270 35,000 160 461 0
2019-09-13 07:33:14 GMT 47.368298 2.672636 35,000 160 461 0
2019-09-13 07:33:11 GMT 47.374329 2.669472 35,000 160 461 0
2019-09-13 07:33:08 GMT 47.381561 2.665627 35,000 160 461 0
2019-09-13 07:33:00 GMT 47.395157 2.658348 35,000 160 461 0
2019-09-13 07:32:56 GMT 47.404423 2.653410 35,000 160 462 0
2019-09-13 07:32:50 GMT 47.416855 2.646812 35,000 160 462 0
2019-09-13 07:32:47 GMT 47.421276 2.644466 35,000 160 462 0
2019-09-13 07:32:44 GMT 47.428490 2.640663 35,000 160 462 0
2019-09-13 07:32:41 GMT 47.435707 2.636789 35,000 160 462 -64
2019-09-13 07:32:37 GMT 47.442535 2.633148 35,000 160 462 0
2019-09-13 07:32:33 GMT 47.449768 2.629303 35,000 160 462 0
2019-09-13 07:32:30 GMT 47.463825 2.621789 35,000 160 462 0
2019-09-13 07:32:26 GMT 47.463825 2.621789 35,000 160 462 0
2019-09-13 07:32:23 GMT 47.471878 2.617493 35,000 160 462 0
2019-09-13 07:32:20 GMT 47.477509 2.614464 35,000 160 462 0
2019-09-13 07:32:16 GMT 47.485153 2.610420 35,000 160 462 0
2019-09-13 07:32:12 GMT 47.492779 2.606295 35,000 160 462 0
2019-09-13 07:32:07 GMT 47.502415 2.601154 35,000 160 463 -64
2019-09-13 07:32:04 GMT 47.509277 2.597511 35,000 160 463 0
2019-09-13 07:32:00 GMT 47.517334 2.593185 35,000 160 463 -64
2019-09-13 07:31:56 GMT 47.524567 2.589272 35,000 160 463 -64
2019-09-13 07:31:53 GMT 47.530624 2.586083 35,000 160 463 -64
2019-09-13 07:31:50 GMT 47.536652 2.582817 35,025 160 463 -64
2019-09-13 07:31:47 GMT 47.545940 2.577843 35,025 159 464 0
2019-09-13 07:31:41 GMT 47.556015 2.572449 35,025 160 465 0
2019-09-13 07:31:36 GMT 47.567276 2.566406 35,025 160 465 0
2019-09-13 07:31:33 GMT 47.570103 2.564885 35,025 160 465 0
2019-09-13 07:31:29 GMT 47.581009 2.559059 35,025 160 465 0
2019-09-13 07:31:26 GMT 47.590714 2.553841 35,025 160 465 0
2019-09-13 07:31:20 GMT 47.597569 2.550096 35,025 160 465 0
2019-09-13 07:31:16 GMT 47.606094 2.545601 35,025 160 465 0
2019-09-13 07:31:12 GMT 47.614151 2.541206 35,025 160 465 0
2019-09-13 07:31:08 GMT 47.621429 2.537292 35,025 160 466 0
2019-09-13 07:31:04 GMT 47.629921 2.532701 35,025 160 465 0
2019-09-13 07:31:01 GMT 47.635208 2.529877 35,025 160 465 0
2019-09-13 07:30:57 GMT 47.642910 2.525729 35,025 160 466 0
2019-09-13 07:30:54 GMT 47.650173 2.521855 35,025 160 466 64
2019-09-13 07:30:51 GMT 47.655060 2.519250 35,025 159 467 64
2019-09-13 07:30:47 GMT 47.663952 2.514390 35,000 159 467 64
2019-09-13 07:30:43 GMT 47.671261 2.510517 35,025 159 467 64
2019-09-13 07:30:40 GMT 47.677731 2.506996 35,025 159 467 0
2019-09-13 07:30:37 GMT 47.684647 2.503304 35,000 159 467 0
2019-09-13 07:30:33 GMT 47.701286 2.494319 35,000 159 467 0
2019-09-13 07:30:29 GMT 47.701286 2.494319 35,000 159 467 0
2019-09-13 07:30:26 GMT 47.707352 2.491013 35,025 159 467 0
2019-09-13 07:30:23 GMT 47.713074 2.487991 35,025 159 467 0
2019-09-13 07:30:20 GMT 47.720745 2.483826 35,025 159 467 0
2019-09-13 07:30:17 GMT 47.725204 2.481400 35,025 159 467 64
2019-09-13 07:30:13 GMT 47.735363 2.475938 35,000 159 467 64
2019-09-13 07:30:10 GMT 47.740250 2.473332 35,000 159 467 64
2019-09-13 07:30:07 GMT 47.756058 2.464714 35,000 159 468 64
2019-09-13 07:30:02 GMT 47.756058 2.464714 35,000 159 468 64
2019-09-13 07:29:59 GMT 47.762177 2.461430 35,000 159 468 64
2019-09-13 07:29:55 GMT 47.769882 2.457230 35,000 159 468 64
2019-09-13 07:29:51 GMT 47.777985 2.452835 35,000 159 468 64
2019-09-13 07:29:48 GMT 47.783264 2.450022 35,000 159 468 64
2019-09-13 07:29:45 GMT 47.790207 2.446243 35,000 159 468 64
2019-09-13 07:29:41 GMT 47.799957 2.440956 35,000 159 468 64
2019-09-13 07:29:38 GMT 47.804810 2.438347 35,000 159 468 0
2019-09-13 07:29:35 GMT 47.810532 2.435257 35,000 159 468 0
2019-09-13 07:29:32 GMT 47.816597 2.431922 35,000 159 468 0
2019-09-13 07:29:27 GMT 47.827164 2.426218 35,000 159 468 0
2019-09-13 07:29:24 GMT 47.832458 2.423309 35,000 159 468 0
2019-09-13 07:29:21 GMT 47.844635 2.416718 35,000 159 468 0
2019-09-13 07:29:18 GMT 47.844635 2.416718 35,000 159 468 0
2019-09-13 07:29:15 GMT 47.850765 2.413401 35,000 159 468 0
2019-09-13 07:29:12 GMT 47.863358 2.406555 35,000 159 468 64
2019-09-13 07:29:05 GMT 47.870270 2.402837 35,000 159 468 0
2019-09-13 07:29:02 GMT 47.877182 2.399071 35,000 159 468 64
2019-09-13 07:28:59 GMT 47.884052 2.395301 35,000 159 468 0
2019-09-13 07:28:55 GMT 47.893433 2.390213 35,000 159 468 0
2019-09-13 07:28:51 GMT 47.900299 2.386498 35,000 159 468 0
2019-09-13 07:28:48 GMT 47.905609 2.383621 35,000 159 468 0
2019-09-13 07:28:44 GMT 47.913712 2.379158 35,000 159 468 0
2019-09-13 07:28:41 GMT 47.920643 2.375441 35,000 159 468 0
2019-09-13 07:28:37 GMT 47.927952 2.371427 35,000 159 468 0
2019-09-13 07:28:34 GMT 47.940147 2.364807 35,000 159 468 0
2019-09-13 07:28:31 GMT 47.940147 2.364807 35,000 159 468 0
2019-09-13 07:28:28 GMT 47.945435 2.361923 35,000 159 468 0
2019-09-13 07:28:25 GMT 47.952759 2.357941 35,000 159 468 0
2019-09-13 07:28:22 GMT 47.959259 2.354370 35,000 159 468 0
2019-09-13 07:28:19 GMT 47.966167 2.350581 35,000 159 468 0
2019-09-13 07:28:15 GMT 47.974316 2.346144 35,000 159 468 -64
2019-09-13 07:28:11 GMT 47.981625 2.342201 35,000 159 468 0
2019-09-13 07:28:06 GMT 47.993408 2.335762 35,000 159 468 0
2019-09-13 07:28:03 GMT 47.998306 2.333084 35,000 159 468 0
2019-09-13 07:28:00 GMT 48.004387 2.329735 35,000 159 468 0
2019-09-13 07:27:55 GMT 48.014164 2.324454 35,000 159 468 0
2019-09-13 07:27:52 GMT 48.027943 2.316848 35,000 159 468 0
2019-09-13 07:27:48 GMT 48.027943 2.316848 35,000 159 468 0
2019-09-13 07:27:44 GMT 48.036926 2.311918 35,000 159 468 -64
2019-09-13 07:27:41 GMT 48.042606 2.308819 35,000 159 468 -64
2019-09-13 07:27:38 GMT 48.047497 2.306143 35,000 159 468 0
2019-09-13 07:27:34 GMT 48.055641 2.301636 35,025 159 468 0
2019-09-13 07:27:31 GMT 48.064579 2.296776 35,025 159 468 0
2019-09-13 07:27:27 GMT 48.071888 2.292762 35,025 159 468 64
2019-09-13 07:27:20 GMT 48.086506 2.284734 35,025 159 468 0
2019-09-13 07:27:17 GMT 48.091393 2.282058 35,000 159 469 0
2019-09-13 07:27:11 GMT 48.101963 2.276212 35,000 159 469 0
2019-09-13 07:27:08 GMT 48.108078 2.272865 35,000 159 469 0
2019-09-13 07:27:05 GMT 48.117874 2.267509 35,000 159 469 -64
2019-09-13 07:27:02 GMT 48.123142 2.264592 35,000 159 469 -64
2019-09-13 07:26:58 GMT 48.129272 2.261261 35,000 159 469 -64
2019-09-13 07:26:54 GMT 48.145954 2.252056 35,025 159 469 -64
2019-09-13 07:26:50 GMT 48.145954 2.252056 35,025 159 469 0
2019-09-13 07:26:47 GMT 48.151245 2.249176 35,025 159 469 0
2019-09-13 07:26:44 GMT 48.158195 2.245366 35,025 159 469 0
2019-09-13 07:26:41 GMT 48.163086 2.242657 35,025 159 469 0
2019-09-13 07:26:38 GMT 48.169601 2.239115 35,025 159 470 0
2019-09-13 07:26:35 GMT 48.176910 2.235067 35,025 159 471 64
2019-09-13 07:26:32 GMT 48.185104 2.230586 35,025 159 469 64
2019-09-13 07:26:28 GMT 48.190384 2.227619 35,025 159 469 0
2019-09-13 07:26:23 GMT 48.200180 2.222267 35,025 159 470 64
2019-09-13 07:26:20 GMT 48.207504 2.218252 35,025 159 471 64
2019-09-13 07:26:17 GMT 48.213226 2.215083 35,025 159 471 64
2019-09-13 07:26:13 GMT 48.221786 2.210348 35,025 159 471 64
2019-09-13 07:26:10 GMT 48.227512 2.207168 35,025 159 471 64
2019-09-13 07:26:06 GMT 48.235245 2.202900 35,000 159 471 0
2019-09-13 07:26:03 GMT 48.247902 2.195892 35,000 159 471 0
2019-09-13 07:26:00 GMT 48.247902 2.195892 35,025 159 471 0
2019-09-13 07:25:57 GMT 48.253189 2.192970 35,025 159 471 64
2019-09-13 07:25:53 GMT 48.262161 2.187970 35,000 159 471 0
2019-09-13 07:25:49 GMT 48.269920 2.183677 35,025 158 472 0
2019-09-13 07:25:46 GMT 48.276855 2.179871 35,000 159 471 64
2019-09-13 07:25:41 GMT 48.288300 2.173532 35,000 159 471 -64
2019-09-13 07:25:36 GMT 48.296448 2.169025 35,000 159 471 0
2019-09-13 07:25:33 GMT 48.306290 2.163602 35,000 159 471 -64
2019-09-13 07:25:29 GMT 48.310364 2.161349 35,000 159 471 0
2019-09-13 07:25:26 GMT 48.318512 2.156842 35,000 159 471 0
2019-09-13 07:25:22 GMT 48.325882 2.152757 35,000 159 470 64
2019-09-13 07:25:19 GMT 48.336864 2.146454 35,025 154 473 0
2019-09-13 07:25:16 GMT 48.336864 2.146454 35,025 158 472 0
2019-09-13 07:25:13 GMT 48.344917 2.141611 35,025 156 472 0
2019-09-13 07:25:10 GMT 48.351746 2.137263 35,000 156 472 0
2019-09-13 07:25:06 GMT 48.357765 2.133299 35,000 155 473 0
2019-09-13 07:25:02 GMT 48.368099 2.126216 35,025 154 473 0
2019-09-13 07:24:59 GMT 48.373993 2.121911 35,025 153 473 0
2019-09-13 07:24:56 GMT 48.378708 2.118389 35,025 153 474 0
2019-09-13 07:24:53 GMT 48.383377 2.114798 35,000 151 474 0
2019-09-13 07:24:50 GMT 48.388779 2.110572 35,025 151 474 64
2019-09-13 07:24:46 GMT 48.396870 2.103954 35,025 151 474 0
2019-09-13 07:24:43 GMT 48.404114 2.097825 35,000 150 474 64
2019-09-13 07:24:39 GMT 48.412445 2.090501 35,000 148 475 64
2019-09-13 07:24:35 GMT 48.427368 2.076557 35,000 147 475 64
2019-09-13 07:24:30 GMT 48.427368 2.076557 35,000 147 476 64
2019-09-13 07:24:27 GMT 48.432903 2.071212 35,000 147 475 64
2019-09-13 07:24:24 GMT 48.438068 2.066152 35,000 147 475 64
2019-09-13 07:24:21 GMT 48.443619 2.060782 35,000 147 475 0
2019-09-13 07:24:18 GMT 48.456207 2.048598 35,000 147 475 64
2019-09-13 07:24:14 GMT 48.456207 2.048598 35,000 147 475 0
2019-09-13 07:24:10 GMT 48.464310 2.040710 35,000 147 475 64
2019-09-13 07:24:07 GMT 48.468372 2.036735 35,000 147 475 64
2019-09-13 07:24:04 GMT 48.476852 2.028456 35,000 147 475 128
2019-09-13 07:23:59 GMT 48.483875 2.021701 34,975 147 475 0
2019-09-13 07:23:55 GMT 48.491978 2.013751 34,975 147 475 64
2019-09-13 07:23:51 GMT 48.499378 2.006595 34,975 147 475 64
2019-09-13 07:23:47 GMT 48.506378 1.999793 34,975 147 475 0
2019-09-13 07:23:44 GMT 48.517815 1.988670 34,975 147 475 0
2019-09-13 07:23:41 GMT 48.517815 1.988670 34,975 147 475 0
2019-09-13 07:23:37 GMT 48.532928 1.973947 35,000 147 475 0
2019-09-13 07:23:33 GMT 48.532928 1.973947 34,975 147 475 64
2019-09-13 07:23:30 GMT 48.539925 1.967131 34,975 147 475 0
2019-09-13 07:23:26 GMT 48.544350 1.962867 34,975 146 477 64
2019-09-13 07:23:23 GMT 48.551704 1.955639 34,975 147 475 64
2019-09-13 07:23:18 GMT 48.559059 1.948483 34,975 147 475 0
2019-09-13 07:23:15 GMT 48.565670 1.942050 34,975 147 475 0
2019-09-13 07:23:12 GMT 48.571198 1.936622 34,975 147 474 0
2019-09-13 07:23:09 GMT 48.575638 1.932326 34,975 147 474 0
2019-09-13 07:23:06 GMT 48.582230 1.925847 34,975 147 474 0
2019-09-13 07:23:03 GMT 48.586292 1.921885 34,975 147 474 0
2019-09-13 07:23:00 GMT 48.598812 1.909670 34,975 147 474 0
2019-09-13 07:22:57 GMT 48.598812 1.909670 34,975 147 474 0
2019-09-13 07:22:54 GMT 48.604294 1.904297 34,975 147 474 0
2019-09-13 07:22:50 GMT 48.611664 1.897114 34,975 147 474 0
2019-09-13 07:22:47 GMT 48.616837 1.892043 34,975 147 474 0
2019-09-13 07:22:44 GMT 48.622696 1.886338 34,975 147 474 -64
2019-09-13 07:22:41 GMT 48.628235 1.880903 35,000 146 474 -64
2019-09-13 07:22:38 GMT 48.635193 1.874084 35,000 146 474 0
2019-09-13 07:22:35 GMT 48.647320 1.862183 34,975 146 474 0
2019-09-13 07:22:31 GMT 48.654327 1.855351 35,000 146 474 -64
2019-09-13 07:22:27 GMT 48.654327 1.855351 34,975 146 474 0
2019-09-13 07:22:24 GMT 48.658356 1.851341 35,000 146 474 64
2019-09-13 07:22:21 GMT 48.670086 1.839776 35,000 146 474 -64
2019-09-13 07:22:15 GMT 48.675255 1.834789 35,000 146 474 0
2019-09-13 07:22:12 GMT 48.683353 1.826838 35,000 146 474 0
2019-09-13 07:22:09 GMT 48.686985 1.823225 35,000 146 474 0
2019-09-13 07:22:05 GMT 48.694340 1.815997 35,000 146 474 0
2019-09-13 07:22:02 GMT 48.699875 1.810561 35,000 146 474 0
2019-09-13 07:21:59 GMT 48.704628 1.805878 35,000 146 474 0
2019-09-13 07:21:55 GMT 48.713837 1.796898 35,000 146 474 0
2019-09-13 07:21:52 GMT 48.718594 1.792145 35,000 146 474 0
2019-09-13 07:21:47 GMT 48.734390 1.776616 35,000 146 474 0
2019-09-13 07:21:44 GMT 48.734390 1.776616 35,000 146 474 0
2019-09-13 07:21:40 GMT 48.739914 1.771184 35,000 146 474 0
2019-09-13 07:21:37 GMT 48.745827 1.765402 35,000 147 475 0
2019-09-13 07:21:34 GMT 48.752060 1.759221 35,000 147 475 0
2019-09-13 07:21:31 GMT 48.756500 1.754925 35,000 147 475 0
2019-09-13 07:21:28 GMT 48.761627 1.749854 35,000 147 475 0
2019-09-13 07:21:25 GMT 48.766800 1.744784 35,000 146 477 64
2019-09-13 07:21:22 GMT 48.773438 1.738234 35,000 146 476 0
2019-09-13 07:21:19 GMT 48.780029 1.731685 35,000 146 476 0
2019-09-13 07:21:15 GMT 48.785202 1.726614 35,000 146 476 0
2019-09-13 07:21:12 GMT 48.792938 1.718999 35,000 146 476 64
2019-09-13 07:21:09 GMT 48.797012 1.714994 35,000 146 476 64
2019-09-13 07:21:06 GMT 48.801407 1.710628 35,000 146 476 64
2019-09-13 07:21:03 GMT 48.808437 1.703676 35,000 146 476 64
2019-09-13 07:20:59 GMT 48.815414 1.696754 35,000 146 476 0
2019-09-13 07:20:55 GMT 48.823151 1.689076 35,000 146 476 0
2019-09-13 07:20:52 GMT 48.827572 1.684739 35,000 146 476 0
2019-09-13 07:20:49 GMT 48.835327 1.677035 35,000 146 477 64
2019-09-13 07:20:46 GMT 48.841232 1.671190 35,000 146 477 0
2019-09-13 07:20:42 GMT 48.849380 1.663161 35,000 146 476 0
2019-09-13 07:20:39 GMT 48.854153 1.658430 35,000 146 477 0
2019-09-13 07:20:36 GMT 48.858215 1.654428 35,000 146 477 0
2019-09-13 07:20:33 GMT 48.864120 1.648513 35,000 146 477 0
2019-09-13 07:20:30 GMT 48.874870 1.637975 35,000 146 477 0
2019-09-13 07:20:27 GMT 48.874870 1.637975 35,000 146 477 0
2019-09-13 07:20:23 GMT 48.882614 1.630272 35,000 146 476 0
2019-09-13 07:20:20 GMT 48.887741 1.625131 35,000 146 476 0
2019-09-13 07:20:17 GMT 48.893303 1.619688 35,000 146 476 0
2019-09-13 07:20:14 GMT 48.898819 1.614216 35,000 146 476 0
2019-09-13 07:20:11 GMT 48.909504 1.603570 35,000 146 476 0
2019-09-13 07:20:05 GMT 48.915024 1.598088 35,000 146 476 0
2019-09-13 07:20:02 GMT 48.922028 1.591138 35,000 146 476 0
2019-09-13 07:19:59 GMT 48.925323 1.587877 35,000 146 476 64
2019-09-13 07:19:55 GMT 48.932693 1.580552 35,000 146 476 64
2019-09-13 07:19:52 GMT 48.938923 1.574297 35,000 146 476 64
2019-09-13 07:19:48 GMT 48.945923 1.567383 35,000 146 476 64
2019-09-13 07:19:45 GMT 48.953682 1.559625 34,450 146 476 128
2019-09-13 07:19:42 GMT 48.958103 1.555288 35,000 146 476 64
2019-09-13 07:19:39 GMT 48.962906 1.550481 35,000 146 477 256
2019-09-13 07:19:32 GMT 48.977283 1.536207 34,975 146 477 320
2019-09-13 07:19:29 GMT 48.981705 1.531798 34,850 146 477 576
2019-09-13 07:19:23 GMT 48.992786 1.520811 34,925 146 477 576
2019-09-13 07:19:20 GMT 48.998650 1.514885 34,875 146 477 576
2019-09-13 07:19:14 GMT 49.009323 1.504282 34,825 146 476 576
2019-09-13 07:19:11 GMT 49.014851 1.498766 34,825 146 476 576
2019-09-13 07:19:08 GMT 49.018890 1.494704 33,875 146 475 576
2019-09-13 07:19:02 GMT 49.033192 1.480335 34,725 146 475 576
2019-09-13 07:18:58 GMT 49.037933 1.475619 34,700 146 475 512
2019-09-13 07:18:53 GMT 49.047455 1.466041 34,650 146 475 512
2019-09-13 07:18:50 GMT 49.052235 1.461326 34,600 146 475 512
2019-09-13 07:18:47 GMT 49.059219 1.454350 34,575 146 475 576
2019-09-13 07:18:42 GMT 49.066544 1.446956 34,525 146 477 960
2019-09-13 07:18:39 GMT 49.074646 1.438857 34,500 146 477 1024
2019-09-13 07:18:36 GMT 49.084946 1.428575 34,450 146 477 1664
2019-09-13 07:18:33 GMT 49.084946 1.428575 34,400 146 477 1536
2019-09-13 07:18:30 GMT 49.089752 1.423814 34,325 146 480 1408
2019-09-13 07:18:27 GMT 49.095665 1.417887 34,200 146 478 1664
2019-09-13 07:18:23 GMT 49.101929 1.411602 34,175 146 479 1600
2019-09-13 07:18:20 GMT 49.109344 1.404208 34,025 146 480 1344
2019-09-13 07:18:17 GMT 49.113785 1.399700 34,025 146 480 1344
2019-09-13 07:18:14 GMT 49.119003 1.394559 33,900 146 480 768
2019-09-13 07:18:11 GMT 49.132721 1.380808 33,825 146 480 768
2019-09-13 07:18:08 GMT 49.132721 1.380808 33,850 146 480 832
2019-09-13 07:18:05 GMT 49.142357 1.371123 32,900 146 479 1344
2019-09-13 07:18:01 GMT 49.151203 1.362232 33,600 146 479 960
2019-09-13 07:17:58 GMT 49.151203 1.362232 32,925 146 479 1280
2019-09-13 07:17:55 GMT 49.154926 1.358474 33,675 146 479 960
2019-09-13 07:17:52 GMT 49.159744 1.353642 33,625 146 479 1024
2019-09-13 07:17:49 GMT 49.166382 1.346952 33,575 146 479 1024
2019-09-13 07:17:46 GMT 49.171173 1.342139 33,525 146 479 1152
2019-09-13 07:17:42 GMT 49.178574 1.334694 33,475 146 479 1152
2019-09-13 07:17:39 GMT 49.185562 1.327655 33,350 146 479 1088
2019-09-13 07:17:36 GMT 49.188911 1.324286 33,325 146 479 1088
2019-09-13 07:17:33 GMT 49.196640 1.316528 33,275 146 479 1280
2019-09-13 07:17:29 GMT 49.202175 1.310915 33,225 146 479 1280
2019-09-13 07:17:26 GMT 49.209229 1.303852 33,150 146 479 1344
2019-09-13 07:17:20 GMT 49.219913 1.293062 32,900 146 479 1408
2019-09-13 07:17:17 GMT 49.225128 1.287786 32,700 146 482 1664
2019-09-13 07:17:14 GMT 49.230652 1.282231 32,925 146 480 1600
2019-09-13 07:17:10 GMT 49.239185 1.273619 32,800 146 480 1728
2019-09-13 07:17:07 GMT 49.244751 1.268005 32,700 146 482 1664
2019-09-13 07:17:03 GMT 49.251057 1.261621 32,475 146 484 768
2019-09-13 07:17:00 GMT 49.256653 1.255963 32,250 146 483 1536
2019-09-13 07:16:56 GMT 49.270065 1.242371 32,375 146 484 832
2019-09-13 07:16:53 GMT 49.270065 1.242371 32,350 146 484 1152
2019-09-13 07:16:49 GMT 49.275639 1.236757 32,175 146 484 896
2019-09-13 07:16:46 GMT 49.290207 1.222088 32,075 146 484 768
2019-09-13 07:16:43 GMT 49.290207 1.222088 32,125 146 484 768
2019-09-13 07:16:40 GMT 49.295048 1.217170 32,100 146 483 768
2019-09-13 07:16:37 GMT 49.303986 1.208135 31,725 146 480 640
2019-09-13 07:16:34 GMT 49.303986 1.208135 31,950 146 482 1088
2019-09-13 07:16:31 GMT 49.310303 1.201735 32,000 146 482 1024
2019-09-13 07:16:28 GMT 49.315159 1.196859 31,975 146 482 1088
2019-09-13 07:16:25 GMT 49.321815 1.190137 31,600 146 476 1152
2019-09-13 07:16:22 GMT 49.327423 1.184481 29,600 146 482 1024
2019-09-13 07:16:19 GMT 49.334061 1.177720 31,800 146 481 896
2019-09-13 07:16:14 GMT 49.341137 1.170622 31,700 146 480 704
2019-09-13 07:16:11 GMT 49.354065 1.157508 31,575 146 477 832
2019-09-13 07:16:07 GMT 49.354065 1.157508 31,675 146 478 576
2019-09-13 07:16:03 GMT 49.365482 1.145903 31,075 146 485 2112
2019-09-13 07:15:59 GMT 49.373886 1.137296 31,175 146 485 2112
2019-09-13 07:15:53 GMT 49.381256 1.129902 31,450 146 476 1280
2019-09-13 07:15:50 GMT 49.385651 1.125394 31,300 146 476 1856
2019-09-13 07:15:46 GMT 49.392242 1.118704 31,075 146 476 1856
2019-09-13 07:15:43 GMT 49.397743 1.113089 31,125 146 477 2176
2019-09-13 07:15:40 GMT 49.403961 1.106732 31,075 146 479 2624
2019-09-13 07:15:36 GMT 49.412064 1.098492 29,425 146 487 832
2019-09-13 07:15:33 GMT 49.417576 1.092851 30,850 146 480 2624
2019-09-13 07:15:30 GMT 49.423141 1.087224 30,225 146 486 1792
2019-09-13 07:15:27 GMT 49.430557 1.079624 30,575 146 483 2176
2019-09-13 07:15:23 GMT 49.436150 1.073914 30,400 146 486 1984
2019-09-13 07:15:20 GMT 49.442505 1.067481 30,250 146 487 1536
2019-09-13 07:15:13 GMT 49.456741 1.052953 30,150 146 487 1536
2019-09-13 07:15:08 GMT 49.467667 1.041771 30,000 146 488 1600
2019-09-13 07:15:03 GMT 49.472534 1.036835 29,925 146 488 1472
2019-09-13 07:15:00 GMT 49.478931 1.030265 29,875 146 489 1152
2019-09-13 07:14:57 GMT 49.483795 1.025270 29,675 146 489 1152
2019-09-13 07:14:54 GMT 49.490940 1.017943 29,725 146 489 1216
2019-09-13 07:14:51 GMT 49.494713 1.014157 29,675 146 489 1152
2019-09-13 07:14:48 GMT 49.506023 1.002577 29,550 146 488 1088
2019-09-13 07:14:42 GMT 49.512405 0.996070 29,475 146 487 896
2019-09-13 07:14:39 GMT 49.518402 0.989926 29,300 146 484 768
2019-09-13 07:14:36 GMT 49.526276 0.981866 29,100 146 483 704
2019-09-13 07:14:33 GMT 49.531906 0.976121 29,350 146 486 768
2019-09-13 07:14:30 GMT 49.535259 0.972661 29,275 146 485 832
2019-09-13 07:14:26 GMT 49.543121 0.964629 29,275 146 484 768
2019-09-13 07:14:20 GMT 49.552826 0.954726 29,150 146 482 704
2019-09-13 07:14:17 GMT 49.559509 0.947860 29,175 146 483 704
2019-09-13 07:14:14 GMT 49.566925 0.940271 28,625 146 476 1152
2019-09-13 07:14:10 GMT 49.572830 0.934199 29,100 146 480 704
2019-09-13 07:14:07 GMT 49.586468 0.920179 29,000 146 478 1088
2019-09-13 07:14:00 GMT 49.592010 0.914467 28,975 146 478 1088
2019-09-13 07:13:57 GMT 49.599335 0.906950 28,900 146 477 1088
2019-09-13 07:13:54 GMT 49.602310 0.903915 28,850 146 477 1152
2019-09-13 07:13:51 GMT 49.607437 0.898638 28,800 146 477 1216
2019-09-13 07:13:48 GMT 49.612907 0.893010 27,775 145 463 1024
2019-09-13 07:13:44 GMT 49.626827 0.878684 28,600 146 476 1152
2019-09-13 07:13:40 GMT 49.626827 0.878684 28,600 146 476 1152
2019-09-13 07:13:37 GMT 49.634491 0.870739 28,275 146 471 1024
2019-09-13 07:13:34 GMT 49.638885 0.866258 28,475 146 474 896
2019-09-13 07:13:30 GMT 49.646164 0.858741 28,450 146 475 960
2019-09-13 07:13:27 GMT 49.650894 0.853890 28,375 146 472 896
2019-09-13 07:13:24 GMT 49.656013 0.848620 28,325 146 468 1024
2019-09-13 07:13:19 GMT 49.666164 0.838227 28,050 146 469 960
2019-09-13 07:13:16 GMT 49.670494 0.833699 27,775 145 463 1024
2019-09-13 07:13:13 GMT 49.676651 0.827372 28,175 146 470 1024
2019-09-13 07:13:10 GMT 49.682083 0.821822 28,075 146 470 960
2019-09-13 07:13:06 GMT 49.690338 0.813277 28,050 153 444 1280
2019-09-13 07:13:02 GMT 49.696838 0.806628 28,000 144 463 1280
2019-09-13 07:12:59 GMT 49.703636 0.799627 27,850 146 464 1152
2019-09-13 07:12:55 GMT 49.708328 0.794846 27,850 146 466 1216
2019-09-13 07:12:52 GMT 49.716579 0.786339 27,775 146 465 1152
2019-09-13 07:12:44 GMT 49.728729 0.773868 27,600 145 463 960
2019-09-13 07:12:40 GMT 49.735901 0.766519 26,875 145 456 1472
2019-09-13 07:12:37 GMT 49.741577 0.760581 27,500 145 463 1024
2019-09-13 07:12:33 GMT 49.755157 0.745697 26,750 144 463 1280
2019-09-13 07:12:29 GMT 49.755157 0.745697 26,325 140 464 1216
2019-09-13 07:12:25 GMT 49.761036 0.739053 27,175 141 464 1600
2019-09-13 07:12:22 GMT 49.767517 0.731458 27,000 142 464 1664
2019-09-13 07:12:19 GMT 49.772583 0.725320 27,175 140 464 1280
2019-09-13 07:12:15 GMT 49.781288 0.714557 26,925 140 465 1408
2019-09-13 07:12:09 GMT 49.789948 0.703645 26,900 140 465 1408
2019-09-13 07:12:05 GMT 49.795254 0.696964 26,775 140 464 1216
2019-09-13 07:12:01 GMT 49.803913 0.686052 26,325 140 464 1216
2019-09-13 07:11:58 GMT 49.809917 0.678554 26,675 140 464 1216
2019-09-13 07:11:54 GMT 49.813873 0.673581 26,475 141 460 1280
2019-09-13 07:11:50 GMT 49.821835 0.663634 26,500 141 461 1216
2019-09-13 07:11:47 GMT 49.825516 0.659107 26,450 142 460 1280
2019-09-13 07:11:42 GMT 49.839066 0.643351 26,275 144 457 1408
2019-09-13 07:11:39 GMT 49.839066 0.643351 26,275 144 457 1408
2019-09-13 07:11:36 GMT 49.844559 0.637279 26,225 144 456 1472
2019-09-13 07:11:32 GMT 49.851517 0.629979 25,825 148 452 1408
2019-09-13 07:11:29 GMT 49.855728 0.625642 26,025 147 453 1408
2019-09-13 07:11:26 GMT 49.862091 0.619354 25,975 147 453 1408
2019-09-13 07:11:23 GMT 49.868153 0.613601 25,900 149 452 1408
2019-09-13 07:11:20 GMT 49.878956 0.603803 25,800 151 448 1344
2019-09-13 07:11:17 GMT 49.878956 0.603803 25,775 150 450 1408
2019-09-13 07:11:13 GMT 49.884384 0.599116 25,700 152 446 1280
2019-09-13 07:11:10 GMT 49.890591 0.594004 24,550 153 446 1280
2019-09-13 07:11:06 GMT 49.897202 0.588734 25,550 152 446 1280
2019-09-13 07:11:03 GMT 49.903473 0.583866 25,500 153 439 1664
2019-09-13 07:10:59 GMT 49.918213 0.572590 25,375 153 441 1472
2019-09-13 07:10:56 GMT 49.918213 0.572590 25,350 153 444 1280
2019-09-13 07:10:53 GMT 49.922607 0.569193 25,275 153 442 1344
2019-09-13 07:10:48 GMT 49.931744 0.562233 25,175 153 441 1408
2019-09-13 07:10:44 GMT 49.944176 0.552657 25,025 153 440 1664
2019-09-13 07:10:41 GMT 49.949661 0.548449 25,025 153 440 1664
2019-09-13 07:10:38 GMT 49.949661 0.548449 24,900 153 440 1536
2019-09-13 07:10:35 GMT 49.955112 0.544269 24,800 153 439 1728
2019-09-13 07:10:32 GMT 49.962067 0.538981 24,750 153 439 1792
2019-09-13 07:10:28 GMT 49.969685 0.533134 24,650 153 439 1792
2019-09-13 07:10:24 GMT 49.978088 0.526693 24,500 153 439 1792
2019-09-13 07:10:19 GMT 49.984634 0.521634 24,250 153 423 2240
2019-09-13 07:10:16 GMT 49.991566 0.516357 24,125 153 439 1664
2019-09-13 07:10:13 GMT 49.996639 0.512423 24,225 153 438 1664
2019-09-13 07:10:08 GMT 50.003155 0.507375 24,100 153 438 1600
2019-09-13 07:10:05 GMT 50.010086 0.502046 23,925 153 438 1600
2019-09-13 07:10:02 GMT 50.013702 0.499300 23,925 153 438 1600
2019-09-13 07:09:59 GMT 50.020203 0.494240 21,775 153 425 1408
2019-09-13 07:09:56 GMT 50.026016 0.489831 23,825 153 437 1792
2019-09-13 07:09:52 GMT 50.034344 0.483398 23,225 153 436 1600
2019-09-13 07:09:46 GMT 50.043365 0.476387 23,525 153 437 1664
2019-09-13 07:09:43 GMT 50.050266 0.471150 23,450 153 436 1536
2019-09-13 07:09:40 GMT 50.054947 0.467497 23,350 153 436 1536
2019-09-13 07:09:37 GMT 50.060715 0.463088 23,225 153 435 1600
2019-09-13 07:09:34 GMT 50.065395 0.459496 23,050 153 434 1600
2019-09-13 07:09:31 GMT 50.070099 0.455860 23,025 153 433 1472
2019-09-13 07:09:28 GMT 50.082664 0.446134 22,175 153 434 1536
2019-09-13 07:09:22 GMT 50.086948 0.442868 22,875 153 432 1600
2019-09-13 07:09:19 GMT 50.097702 0.434554 22,575 153 431 1920
2019-09-13 07:09:16 GMT 50.097702 0.434554 22,775 153 432 1856
2019-09-13 07:09:13 GMT 50.102325 0.430997 22,750 153 432 1856
2019-09-13 07:09:10 GMT 50.107712 0.426834 22,625 153 431 1920
2019-09-13 07:09:06 GMT 50.115189 0.421022 22,175 153 431 2048
2019-09-13 07:09:03 GMT 50.120560 0.416887 22,425 153 431 1984
2019-09-13 07:08:59 GMT 50.133774 0.406711 22,175 153 431 1920
2019-09-13 07:08:56 GMT 50.133774 0.406711 22,125 153 431 1856
2019-09-13 07:08:53 GMT 50.138390 0.403154 22,075 153 430 1664
2019-09-13 07:08:48 GMT 50.151890 0.392687 21,800 153 428 1472
2019-09-13 07:08:42 GMT 50.157257 0.388569 21,775 153 425 1408
2019-09-13 07:08:38 GMT 50.166786 0.381181 21,500 153 424 1600
2019-09-13 07:08:35 GMT 50.175957 0.374055 21,600 153 425 1472
2019-09-13 07:08:32 GMT 50.175957 0.374055 21,575 153 425 1536
2019-09-13 07:08:29 GMT 50.181244 0.369994 21,375 153 424 1792
2019-09-13 07:08:25 GMT 50.187561 0.365151 21,375 153 423 2048
2019-09-13 07:08:22 GMT 50.193878 0.360236 20,050 153 422 1920
2019-09-13 07:08:16 GMT 50.204029 0.352379 20,975 153 423 2240
2019-09-13 07:08:13 GMT 50.208218 0.349113 21,000 153 423 2240
2019-09-13 07:08:10 GMT 50.213470 0.345057 20,675 153 423 2304
2019-09-13 07:08:07 GMT 50.219391 0.340428 20,775 153 423 2240
2019-09-13 07:08:03 GMT 50.230610 0.331743 20,400 153 423 2176
2019-09-13 07:08:00 GMT 50.232330 0.330385 20,400 153 423 2304
2019-09-13 07:07:57 GMT 50.237591 0.326324 20,400 153 423 2368
2019-09-13 07:07:54 GMT 50.242126 0.322796 20,300 153 423 2112
2019-09-13 07:07:51 GMT 50.248764 0.317639 20,150 153 408 1920
2019-09-13 07:07:48 GMT 50.255096 0.312739 20,050 153 422 1664
2019-09-13 07:07:45 GMT 50.259613 0.309207 20,000 153 421 1600
2019-09-13 07:07:42 GMT 50.263779 0.305955 19,900 153 421 1600
2019-09-13 07:07:39 GMT 50.273159 0.298635 19,800 153 419 1728
2019-09-13 07:07:32 GMT 50.280792 0.292697 19,625 153 416 1792
2019-09-13 07:07:29 GMT 50.287354 0.287596 19,525 153 416 1792
2019-09-13 07:07:26 GMT 50.300446 0.277477 18,425 153 410 2112
2019-09-13 07:07:21 GMT 50.300446 0.277477 19,300 153 414 1664
2019-09-13 07:07:18 GMT 50.306953 0.272357 19,250 153 412 1600
2019-09-13 07:07:15 GMT 50.313446 0.267358 19,150 153 412 1664
2019-09-13 07:07:12 GMT 50.315147 0.265973 19,125 153 412 1664
2019-09-13 07:07:09 GMT 50.326355 0.257239 18,900 153 410 2176
2019-09-13 07:07:05 GMT 50.326355 0.257239 18,950 153 410 2112
2019-09-13 07:07:02 GMT 50.338238 0.248009 18,200 153 410 2432
2019-09-13 07:06:59 GMT 50.338238 0.248009 18,675 153 410 2496
2019-09-13 07:06:55 GMT 50.344383 0.243258 18,425 153 410 2112
2019-09-13 07:06:51 GMT 50.351486 0.237724 18,350 153 410 1984
2019-09-13 07:06:48 GMT 50.354874 0.235050 17,950 153 408 1920
2019-09-13 07:06:45 GMT 50.361980 0.229525 17,325 153 402 1728
2019-09-13 07:06:41 GMT 50.369064 0.223991 18,025 153 406 2176
2019-09-13 07:06:38 GMT 50.373138 0.220883 17,925 153 406 2176
2019-09-13 07:06:35 GMT 50.377167 0.217775 17,800 153 406 2112
2019-09-13 07:06:32 GMT 50.383896 0.212499 17,675 153 405 2048
2019-09-13 07:06:28 GMT 50.389938 0.207801 17,625 153 403 1728
2019-09-13 07:06:24 GMT 50.396942 0.202356 17,500 153 402 1728
2019-09-13 07:06:20 GMT 50.402946 0.197680 17,300 154 392 2496
2019-09-13 07:06:17 GMT 50.407883 0.193779 17,125 153 398 2048
2019-09-13 07:06:13 GMT 50.419144 0.185033 17,150 153 396 2112
2019-09-13 07:06:07 GMT 50.424362 0.180985 17,000 153 396 2112
2019-09-13 07:06:04 GMT 50.429626 0.176865 16,825 153 395 2112
2019-09-13 07:06:01 GMT 50.434204 0.173324 16,825 153 395 2112
2019-09-13 07:05:58 GMT 50.440750 0.168192 16,675 153 394 2176
2019-09-13 07:05:55 GMT 50.443027 0.166428 16,425 153 393 2752
2019-09-13 07:05:51 GMT 50.451500 0.159821 16,425 153 392 2688
2019-09-13 07:05:45 GMT 50.460625 0.152769 16,200 153 393 2752
2019-09-13 07:05:40 GMT 50.470093 0.145641 15,825 155 392 2432
2019-09-13 07:05:35 GMT 50.477325 0.140293 15,750 155 391 2368
2019-09-13 07:05:29 GMT 50.487350 0.133860 15,475 161 387 2048
2019-09-13 07:05:23 GMT 50.497959 0.129312 15,325 169 381 2048
2019-09-13 07:05:16 GMT 50.508389 0.126788 14,950 179 373 2688
2019-09-13 07:05:13 GMT 50.514267 0.126126 15,000 177 374 2432
2019-09-13 07:05:10 GMT 50.519119 0.125909 14,500 179 372 2432
2019-09-13 07:05:06 GMT 50.525345 0.125837 14,775 179 373 2752
2019-09-13 07:05:03 GMT 50.531197 0.125823 14,575 179 372 2752
2019-09-13 07:05:00 GMT 50.538040 0.125749 14,400 179 372 2688
2019-09-13 07:04:55 GMT 50.544617 0.125692 14,000 179 365 2432
2019-09-13 07:04:51 GMT 50.551483 0.125620 14,000 179 370 2368
2019-09-13 07:04:47 GMT 50.559677 0.125548 12,750 179 363 2624
2019-09-13 07:04:43 GMT 50.567871 0.125403 13,450 179 362 3072
2019-09-13 07:04:40 GMT 50.576351 0.125304 13,550 179 368 2560
2019-09-13 07:04:37 GMT 50.576351 0.125304 13,525 179 367 2496
2019-09-13 07:04:33 GMT 50.581799 0.125155 12,625 179 362 3072
2019-09-13 07:04:30 GMT 50.587898 0.125081 13,250 179 366 2432
2019-09-13 07:04:27 GMT 50.593300 0.125007 13,125 179 364 2432
2019-09-13 07:04:23 GMT 50.601353 0.124858 12,925 179 362 3072
2019-09-13 07:04:20 GMT 50.605404 0.124858 12,900 179 362 2816
2019-09-13 07:04:17 GMT 50.610397 0.124753 12,075 179 362 3072
2019-09-13 07:04:14 GMT 50.616760 0.124635 12,525 179 362 2816
2019-09-13 07:04:11 GMT 50.620766 0.124635 11,950 179 362 2880
2019-09-13 07:04:08 GMT 50.624767 0.124561 12,325 179 362 2816
2019-09-13 07:04:05 GMT 50.636780 0.124413 12,075 179 356 2240
2019-09-13 07:04:02 GMT 50.636780 0.124413 11,950 179 360 2240
2019-09-13 07:03:59 GMT 50.639786 0.124391 11,925 179 360 2240
2019-09-13 07:03:55 GMT 50.645737 0.124319 11,675 179 356 2240
2019-09-13 07:03:52 GMT 50.650696 0.124264 11,700 179 356 2240
2019-09-13 07:03:49 GMT 50.657261 0.124264 11,525 180 353 2176
2019-09-13 07:03:46 GMT 50.660889 0.124247 11,325 180 337 1024
2019-09-13 07:03:43 GMT 50.667389 0.124247 11,325 180 351 2048
2019-09-13 07:03:39 GMT 50.672562 0.124264 11,000 181 341 1088
2019-09-13 07:03:36 GMT 50.678677 0.124283 10,975 180 337 1024
2019-09-13 07:03:31 GMT 50.686615 0.124339 11,000 179 336 1024
2019-09-13 07:03:28 GMT 50.690369 0.124339 10,950 180 337 1024
2019-09-13 07:03:25 GMT 50.702087 0.124264 10,850 179 327 1024
2019-09-13 07:03:20 GMT 50.702087 0.124264 10,825 178 326 960
2019-09-13 07:03:16 GMT 50.707535 0.124116 10,775 177 320 960
2019-09-13 07:03:13 GMT 50.712006 0.123978 10,750 178 321 960
2019-09-13 07:03:10 GMT 50.717312 0.123520 10,650 175 314 1024
2019-09-13 07:03:07 GMT 50.722527 0.122910 10,650 174 313 1024
2019-09-13 07:03:04 GMT 50.725971 0.122223 10,575 167 305 2048
2019-09-13 07:03:01 GMT 50.735420 0.119324 9,175 163 300 2816
2019-09-13 07:02:57 GMT 50.735420 0.119324 9,825 163 303 3264
2019-09-13 07:02:54 GMT 50.740356 0.117264 10,350 164 304 2880
2019-09-13 07:02:51 GMT 50.744385 0.115431 10,075 163 302 3328
2019-09-13 07:02:48 GMT 50.752441 0.111645 9,925 163 302 3328
2019-09-13 07:02:45 GMT 50.752441 0.111645 9,825 163 302 3328
2019-09-13 07:02:42 GMT 50.755096 0.110383 9,625 163 302 3264
2019-09-13 07:02:38 GMT 50.761551 0.107339 9,450 163 302 3136
2019-09-13 07:02:35 GMT 50.765541 0.105438 9,275 163 301 3072
2019-09-13 07:02:32 GMT 50.769562 0.103554 8,800 163 293 2688
2019-09-13 07:02:29 GMT 50.773548 0.101700 8,950 163 299 2624
2019-09-13 07:02:26 GMT 50.777527 0.099842 8,725 163 295 2624
2019-09-13 07:02:23 GMT 50.781509 0.098038 8,775 163 296 2624
2019-09-13 07:02:19 GMT 50.786720 0.095673 7,250 164 283 128
2019-09-13 07:02:16 GMT 50.791672 0.093458 8,450 164 292 2624
2019-09-13 07:02:13 GMT 50.794281 0.092270 8,300 164 289 2688
2019-09-13 07:02:10 GMT 50.801971 0.088856 8,175 164 288 2944
2019-09-13 07:02:03 GMT 50.808369 0.086060 7,200 164 284 2880
2019-09-13 07:01:58 GMT 50.812931 0.084000 7,675 164 285 3136
2019-09-13 07:01:54 GMT 50.820053 0.080872 7,375 164 283 2176
2019-09-13 07:01:51 GMT 50.823807 0.079205 7,200 164 284 1088
2019-09-13 07:01:48 GMT 50.826370 0.078092 6,900 164 285 1088
2019-09-13 07:01:45 GMT 50.830109 0.076447 7,125 164 282 1024
2019-09-13 07:01:42 GMT 50.834885 0.074306 7,050 164 283 256
2019-09-13 07:01:38 GMT 50.838913 0.072525 7,000 164 283 128
2019-09-13 07:01:35 GMT 50.842438 0.070892 7,000 164 284 256
2019-09-13 07:01:32 GMT 50.846214 0.069199 7,000 164 284 256
2019-09-13 07:01:29 GMT 50.850037 0.067551 6,975 164 284 384
2019-09-13 07:01:26 GMT 50.855339 0.065155 6,950 164 284 640
2019-09-13 07:01:23 GMT 50.857635 0.064136 6,925 164 284 832
2019-09-13 07:01:20 GMT 50.861439 0.062408 6,325 164 284 1088
2019-09-13 07:01:17 GMT 50.865490 0.060654 6,650 164 285 1088
2019-09-13 07:01:14 GMT 50.868805 0.059237 6,825 164 285 1088
2019-09-13 07:01:11 GMT 50.873123 0.057373 6,750 164 284 1088
2019-09-13 07:01:08 GMT 50.876907 0.055674 6,600 164 282 896
2019-09-13 07:01:04 GMT 50.882492 0.053299 6,600 164 284 1088
2019-09-13 07:01:01 GMT 50.885273 0.052032 6,550 164 283 1024
2019-09-13 07:00:58 GMT 50.889542 0.050181 6,525 164 283 1024
2019-09-13 07:00:54 GMT 50.893841 0.048294 6,400 164 284 1536
2019-09-13 07:00:50 GMT 50.900402 0.045471 6,350 164 285 1088
2019-09-13 07:00:43 GMT 50.908310 0.042090 6,200 164 285 1536
2019-09-13 07:00:40 GMT 50.917465 0.038155 6,150 164 285 1536
2019-09-13 07:00:37 GMT 50.917465 0.038155 5,325 164 279 896
2019-09-13 07:00:33 GMT 50.921257 0.036469 6,050 164 285 1536
2019-09-13 07:00:30 GMT 50.926620 0.034221 5,900 164 279 896
2019-09-13 07:00:26 GMT 50.931198 0.032217 5,850 164 283 1408
2019-09-13 07:00:22 GMT 50.934479 0.030746 5,825 164 284 1472
2019-09-13 07:00:19 GMT 50.939041 0.028763 5,675 164 283 1408
2019-09-13 07:00:16 GMT 50.944069 0.026550 5,650 164 283 1344
2019-09-13 07:00:13 GMT 50.946350 0.025536 5,500 164 282 896
2019-09-13 07:00:09 GMT 50.952393 0.022863 5,500 165 268 704
2019-09-13 07:00:06 GMT 50.954170 0.022125 5,450 164 282 896
2019-09-13 07:00:03 GMT 50.959663 0.019608 5,375 164 280 896
2019-09-13 07:00:00 GMT 50.962921 0.018187 5,325 164 279 896
2019-09-13 06:59:57 GMT 50.967625 0.016098 5,300 164 279 960
2019-09-13 06:59:54 GMT 50.970383 0.014921 5,275 164 278 960
2019-09-13 06:59:51 GMT 50.974094 0.013275 5,225 164 276 960
2019-09-13 06:59:48 GMT 50.977539 0.011749 5,175 165 274 1024
2019-09-13 06:59:45 GMT 50.981186 0.010244 5,125 165 272 960
2019-09-13 06:59:41 GMT 50.986294 0.008087 5,025 165 269 832
2019-09-13 06:59:38 GMT 50.989689 0.006714 4,875 165 269 512
2019-09-13 06:59:35 GMT 50.993042 0.005264 4,975 165 269 512
2019-09-13 06:59:32 GMT 51.002472 0.001410 4,925 165 269 512
2019-09-13 06:59:28 GMT 51.002472 0.001410 4,900 165 268 576
2019-09-13 06:59:24 GMT 51.011337 -0.002213 4,875 165 267 576
2019-09-13 06:59:21 GMT 51.011337 -0.002213 4,850 165 267 512
2019-09-13 06:59:18 GMT 51.013245 -0.003052 4,800 165 267 512
2019-09-13 06:59:15 GMT 51.016598 -0.004349 4,800 165 267 512
2019-09-13 06:59:12 GMT 51.025497 -0.007869 4,750 166 267 576
2019-09-13 06:59:09 GMT 51.025497 -0.007869 4,750 166 267 576
2019-09-13 06:59:06 GMT 51.029343 -0.009353 4,725 166 268 512
2019-09-13 06:59:03 GMT 51.032471 -0.010529 4,700 166 268 576
2019-09-13 06:59:00 GMT 51.038498 -0.012768 4,050 165 267 1408
2019-09-13 06:58:57 GMT 51.038498 -0.012768 4,600 166 269 640
2019-09-13 06:58:54 GMT 51.042576 -0.014343 4,625 166 267 576
2019-09-13 06:58:50 GMT 51.046902 -0.015945 4,575 166 267 576
2019-09-13 06:58:47 GMT 51.050995 -0.017519 4,550 166 267 576
2019-09-13 06:58:44 GMT 51.054630 -0.018921 4,525 166 267 640
2019-09-13 06:58:40 GMT 51.059425 -0.020752 4,475 166 268 512
2019-09-13 06:58:37 GMT 51.063995 -0.022492 4,450 166 269 640
2019-09-13 06:58:34 GMT 51.066925 -0.023680 4,400 165 268 1280
2019-09-13 06:58:31 GMT 51.070038 -0.024872 4,400 166 268 896
2019-09-13 06:58:28 GMT 51.073654 -0.026352 4,200 169 268 1472
2019-09-13 06:58:25 GMT 51.077301 -0.027771 4,200 169 268 1472
2019-09-13 06:58:22 GMT 51.080654 -0.029144 4,225 164 266 1536
2019-09-13 06:58:19 GMT 51.084934 -0.030899 4,150 164 266 1536
2019-09-13 06:58:14 GMT 51.089905 -0.033033 4,025 165 266 1472
2019-09-13 06:58:11 GMT 51.095169 -0.035186 3,950 166 267 1472
2019-09-13 06:58:07 GMT 51.099274 -0.036697 3,850 167 266 1472
2019-09-13 06:58:03 GMT 51.103867 -0.038155 3,750 169 266 1472
2019-09-13 06:58:00 GMT 51.107712 -0.039343 3,625 169 267 1472
2019-09-13 06:57:57 GMT 51.111603 -0.040456 3,600 169 266 1472
2019-09-13 06:57:54 GMT 51.115242 -0.041428 3,525 169 266 1472
2019-09-13 06:57:50 GMT 51.119617 -0.042725 3,425 169 268 1472
2019-09-13 06:57:47 GMT 51.124508 -0.044174 3,350 169 268 1472
2019-09-13 06:57:42 GMT 51.129639 -0.045727 3,225 168 265 1920
2019-09-13 06:57:39 GMT 51.133942 -0.047286 2,875 153 252 1600
2019-09-13 06:57:35 GMT 51.137447 -0.048676 2,950 142 246 2048
2019-09-13 06:57:32 GMT 51.141312 -0.050626 2,950 159 256 1536
2019-09-13 06:57:29 GMT 51.144104 -0.052567 2,900 155 253 1536
2019-09-13 06:57:26 GMT 51.147537 -0.055674 2,650 146 248 1856
2019-09-13 06:57:23 GMT 51.150101 -0.058717 2,700 136 242 2368
2019-09-13 06:57:20 GMT 51.152576 -0.062256 2,575 134 241 2560
2019-09-13 06:57:17 GMT 51.154392 -0.065384 2,525 130 239 2880
2019-09-13 06:57:14 GMT 51.156487 -0.069962 2,350 118 237 2496
2019-09-13 06:57:11 GMT 51.158348 -0.075455 2,175 103 230 1984
2019-09-13 06:57:07 GMT 51.159698 -0.081253 2,025 98 226 1728
2019-09-13 06:56:59 GMT 51.160770 -0.094376 1,825 87 216 768
2019-09-13 06:56:56 GMT 51.160583 -0.099411 1,775 84 212 576
2019-09-13 06:56:52 GMT 51.159607 -0.108871 1,625 78 198 1280
2019-09-13 06:56:49 GMT 51.159607 -0.108871 1,700 78 199 1344
2019-09-13 06:56:46 GMT 51.158890 -0.114317 1,575 76 162 1280
2019-09-13 06:56:42 GMT 51.157608 -0.123522 1,500 77 185 1024
2019-09-13 06:56:39 GMT 51.157608 -0.123522 1,450 77 181 960
2019-09-13 06:56:34 GMT 51.156673 -0.130005 1,425 77 178 896
2019-09-13 06:56:29 GMT 51.155697 -0.136948 1,325 77 150 2560
2019-09-13 06:56:26 GMT 51.155136 -0.140762 1,275 76 162 1280
2019-09-13 06:56:23 GMT 51.154816 -0.142822 1,250 76 161 1344
2019-09-13 06:56:17 GMT 51.153740 -0.150375 1,100 76 154 1728
2019-09-13 06:56:13 GMT 51.153088 -0.154724 975 77 150 2560
2019-09-13 06:56:08 GMT 51.152435 -0.159228 775 76 150 3008
2019-09-13 06:56:03 GMT 51.151646 -0.164719 525 77 152 2944
2019-09-13 06:55:58 GMT 51.150806 -0.170898 275 77 155 2496
2019-09-13 06:55:53 GMT 51.150009 -0.176524 50 77 156 2688
2019-09-13 06:55:42 GMT 51.148338 -0.188980 0 78 155
2019-09-13 06:55:27 GMT 51.146484 -0.202449 0 78 98
2019-09-13 06:55:21 GMT 51.145954 -0.206242 0 78 70
2019-09-13 06:55:05 GMT 51.145397 -0.210355 0 78 12
2019-09-13 06:54:57 GMT 51.145313 -0.210934 0 78 9
2019-09-13 06:54:48 GMT 51.145267 -0.211296 0 75 5
2019-09-13 06:54:35 GMT 51.145256 -0.212307 0 118 14
2019-09-13 06:54:28 GMT 51.145523 -0.212803 0 143 13
2019-09-13 06:54:17 GMT 51.146004 -0.213176 0 165 8
2019-09-13 06:53:59 GMT 51.146255 -0.213280 0 171 4
2019-09-13 06:53:42 GMT 51.146595 -0.213299 0 210 7
We lost coverage of the aircraft here for a total of 10 minutes
2019-09-13 06:43:51 GMT 51.147186 -0.210609 0 258 0
2019-09-13 06:43:35 GMT 51.147171 -0.210615 0 258 0
2019-09-13 06:43:31 GMT 51.147175 -0.210629 0 258 0
2019-09-13 06:43:19 GMT 51.147228 -0.210243 0 258 8
2019-09-13 06:43:08 GMT 51.147293 -0.209770 0 258 6
2019-09-13 06:43:00 GMT 51.147327 -0.209465 0 258 5
2019-09-13 06:41:37 GMT 51.147583 -0.207701 0 258 17
2019-09-13 06:41:29 GMT 51.147709 -0.206736 0 255 18
2019-09-13 06:41:23 GMT 51.147827 -0.205860 0 255 24
2019-09-13 06:41:11 GMT 51.148087 -0.203897 0 255 24
2019-09-13 06:41:02 GMT 51.148304 -0.202370 0 258 23
2019-09-13 06:40:38 GMT 51.148792 -0.198860 0 258 19
2019-09-13 06:40:28 GMT 51.148979 -0.197531 0 255 18
2019-09-13 06:40:10 GMT 51.149269 -0.195408 0 258 15
2019-09-13 06:38:29 GMT 51.151142 -0.188493 0 258 13
2019-09-13 06:38:22 GMT 51.151222 -0.187844 0 258 13
2019-09-13 06:38:00 GMT 51.151470 -0.186043 0 258 11
2019-09-13 06:37:43 GMT 51.151646 -0.184875 0 258 9
2019-09-13 06:37:35 GMT 51.151703 -0.184411 0 258 9
2019-09-13 06:37:18 GMT 51.151875 -0.183279 0 261 11
2019-09-13 06:37:12 GMT 51.151875 -0.182815 0 264 11
2019-09-13 06:37:02 GMT 51.152161 -0.182239 0 191 11
2019-09-13 06:36:55 GMT 51.152481 -0.182295 0 168 11
2019-09-13 06:36:33 GMT 51.153419 -0.182611 0 165 10
2019-09-13 06:36:30 GMT 51.153522 -0.182648 0 168 10
2019-09-13 06:36:21 GMT 51.153893 -0.182762 0 174 10
2019-09-13 06:36:01 GMT 51.154427 -0.182037 0 258 9
2019-09-13 06:35:57 GMT 51.154461 -0.181813 0 258 10
2019-09-13 06:35:41 GMT 51.154610 -0.180718 0 255 9
2019-09-13 06:35:33 GMT 51.154671 -0.180283 0 258 9
2019-09-13 06:35:26 GMT 51.154732 -0.179863 0 258 9
2019-09-13 06:35:08 GMT 51.154892 -0.178738 0 258 10
2019-09-13 06:35:03 GMT 51.154930 -0.178361 0 258 11
2019-09-13 06:34:42 GMT 51.155159 -0.176735 0 255 11

Making use of Plane Finder data

You are free to use the raw flight data, aircraft information and images provided in this report for your own purposes provided the data is correctly attributed to Plane Finder. We ask that you please credit Plane Finder and link to planefinder.net in close proximity to the content.

Optionally one of the following logos (no smaller then 150x24px) can be used and must link to planefinder.net

Embedding the Plane Finder map

You are welcome to embed the Plane Finder playback map on your website to offer visitors a more interactive experience. We suggest using the following HTML code:

<iframe src="//planefinder.net/data/report/BA2622-G-EUUZ-7700-squawk-2019-09-13/map" width="800" height="600" seamless="seamless"></iframe>

Where our data comes from

Plane Finder has a global network of data feeds and antenna radars that receive data broadcast directly from aircraft. The primary technologies used are ADS-B and MLAT. We also show feeds from the FAA and a FLARM glider feed.

Click here to find out more about the Plane Finder network.

How we collect our data